Observation data for Fort Lewis CO on 04/16/2018      Previous  Date  Next       Current Mesonet Observations  Soil Data  Daily Summary Page  Observations in Plain Language
KFL1 160501Z 04007KT 07/M08 A3016 RMK A01 T00721075  RH  034%=      5-min Rain = 0
KFL1 160502Z 04006KT 07/M07 A3016 RMK A01 T00711074  RH  035%=      5-min Rain = 0
KFL1 160503Z 04006KT 07/M07 A3016 RMK A01 T00711072  RH  035%=      5-min Rain = 0
KFL1 160504Z 05007KT 07/M07 A3016 RMK A01 T00701072  RH  036%=      5-min Rain = 0
KFL1 160505Z 04008KT 07/M07 A3016 RMK A01 T00701072  RH  036%=      5-min Rain = 0
KFL1 160506Z 04008KT 07/M07 A3016 RMK A01 T00701073  RH  035%=      5-min Rain = 0
KFL1 160507Z 04007KT 07/M08 A3016 RMK A01 T00701075  RH  035%=      5-min Rain = 0
KFL1 160508Z 04007KT 07/M07 A3016 RMK A01 T00721074  RH  035%=      5-min Rain = 0
KFL1 160509Z 04007KT 07/M08 A3016 RMK A01 T00701077  RH  034%=      5-min Rain = 0
KFL1 160510Z 03007KT 07/M08 A3016 RMK A01 T00711078  RH  034%=      5-min Rain = 0
KFL1 160511Z 04007KT 07/M08 A3016 RMK A01 T00731078  RH  033%=      5-min Rain = 0
KFL1 160512Z 04006KT 07/M08 A3016 RMK A01 T00721078  RH  033%=      5-min Rain = 0
KFL1 160513Z 04007KT 07/M08 A3016 RMK A01 T00731078  RH  033%=      5-min Rain = 0
KFL1 160514Z 03006KT 07/M08 A3016 RMK A01 T00741078  RH  033%=      5-min Rain = 0
KFL1 160515Z 03007KT 07/M08 A3016 RMK A01 T00741078  RH  033%=      5-min Rain = 0
KFL1 160516Z 03007KT 07/M08 A3016 RMK A01 T00721080  RH  033%=      5-min Rain = 0
KFL1 160517Z 03007KT 07/M08 A3016 RMK A01 T00731081  RH  033%=      5-min Rain = 0
KFL1 160518Z 04006KT 08/M08 A3016 RMK A01 T00751080  RH  032%=      5-min Rain = 0
KFL1 160519Z 03006KT 07/M08 A3016 RMK A01 T00731083  RH  032%=      5-min Rain = 0
KFL1 160520Z 04006KT 07/M08 A3016 RMK A01 T00731082  RH  032%=      5-min Rain = 0
KFL1 160521Z 04007KT 08/M08 A3016 RMK A01 T00751079  RH  033%=      5-min Rain = 0
KFL1 160522Z 04007KT 07/M08 A3016 RMK A01 T00721081  RH  033%=      5-min Rain = 0
KFL1 160523Z 04006KT 07/M08 A3016 RMK A01 T00731078  RH  033%=      5-min Rain = 0
KFL1 160524Z 04007KT 07/M08 A3016 RMK A01 T00721077  RH  034%=      5-min Rain = 0
KFL1 160525Z 03007KT 07/M08 A3016 RMK A01 T00711078  RH  034%=      5-min Rain = 0
KFL1 160526Z 03006KT 07/M08 A3016 RMK A01 T00721078  RH  034%=      5-min Rain = 0
KFL1 160527Z 03007KT 07/M08 A3016 RMK A01 T00711078  RH  034%=      5-min Rain = 0
KFL1 160528Z 03006KT 07/M08 A3016 RMK A01 T00721079  RH  033%=      5-min Rain = 0
KFL1 160529Z 03007KT 07/M08 A3016 RMK A01 T00721079  RH  033%=      5-min Rain = 0
KFL1 160530Z 04006KT 07/M08 A3016 RMK A01 T00711080  RH  033%=      5-min Rain = 0
KFL1 160531Z 03006KT 07/M08 A3016 RMK A01 T00711082  RH  033%=      5-min Rain = 0
KFL1 160532Z 03006KT 07/M08 A3016 RMK A01 T00711083  RH  033%=      5-min Rain = 0
KFL1 160533Z 04007KT 07/M08 A3016 RMK A01 T00731082  RH  032%=      5-min Rain = 0
KFL1 160534Z 04006KT 07/M08 A3016 RMK A01 T00731081  RH  032%=      5-min Rain = 0
KFL1 160535Z 04006KT 07/M08 A3016 RMK A01 T00731081  RH  033%=      5-min Rain = 0
KFL1 160536Z 04007KT 07/M08 A3016 RMK A01 T00741077  RH  033%=      5-min Rain = 0
KFL1 160537Z 04008KT 07/M08 A3016 RMK A01 T00721077  RH  034%=      5-min Rain = 0
KFL1 160538Z 04008KT 07/M08 A3016 RMK A01 T00711078  RH  034%=      5-min Rain = 0
KFL1 160539Z 04008KT 07/M08 A3016 RMK A01 T00701078  RH  034%=      5-min Rain = 0
KFL1 160540Z 04008KT 07/M08 A3016 RMK A01 T00701077  RH  034%=      5-min Rain = 0
KFL1 160541Z 04007KT 07/M08 A3016 RMK A01 T00701077  RH  034%=      5-min Rain = 0
KFL1 160542Z 04009KT 07/M08 A3016 RMK A01 T00691078  RH  034%=      5-min Rain = 0
KFL1 160543Z 04009KT 07/M08 A3016 RMK A01 T00691078  RH  034%=      5-min Rain = 0
KFL1 160544Z 04008KT 07/M08 A3016 RMK A01 T00701078  RH  034%=      5-min Rain = 0
KFL1 160545Z 05008KT 07/M08 A3016 RMK A01 T00701078  RH  034%=      5-min Rain = 0
KFL1 160546Z 04009KT 07/M08 A3016 RMK A01 T00681079  RH  034%=      5-min Rain = 0
KFL1 160547Z 04009KT 07/M08 A3016 RMK A01 T00681079  RH  034%=      5-min Rain = 0
KFL1 160548Z 04008KT 07/M08 A3016 RMK A01 T00691078  RH  034%=      5-min Rain = 0
KFL1 160549Z 04008KT 07/M08 A3016 RMK A01 T00661080  RH  034%=      5-min Rain = 0
KFL1 160550Z 04008KT 07/M08 A3016 RMK A01 T00671079  RH  034%=      5-min Rain = 0
KFL1 160551Z 04008KT 07/M08 A3016 RMK A01 T00681079  RH  034%=      5-min Rain = 0
KFL1 160552Z 04007KT 07/M08 A3016 RMK A01 T00681077  RH  035%=      5-min Rain = 0
KFL1 160553Z 04007KT 07/M08 A3016 RMK A01 T00671077  RH  035%=      5-min Rain = 0
KFL1 160554Z 04008KT 07/M08 A3016 RMK A01 T00661079  RH  035%=      5-min Rain = 0
KFL1 160555Z 03008KT 07/M08 A3016 RMK A01 T00651079  RH  035%=      5-min Rain = 0
KFL1 160556Z 03008KT 07/M08 A3016 RMK A01 T00661077  RH  035%=      5-min Rain = 0
KFL1 160557Z 04007KT 07/M08 A3016 RMK A01 T00651080  RH  035%=      5-min Rain = 0
KFL1 160558Z 03008KT 07/M08 A3016 RMK A01 T00671081  RH  034%=      5-min Rain = 0
KFL1 160559Z 03008KT 07/M08 A3016 RMK A01 T00671083  RH  033%=      5-min Rain = 0
KFL1 160600Z 03008KT 07/M08 A3016 RMK A01 T00691083  RH  033%=      5-min Rain = 0
KFL1 160601Z 04007KT 07/M08 A3016 RMK A01 T00691084  RH  033%=      5-min Rain = 0
KFL1 160602Z 04007KT 07/M08 A3016 RMK A01 T00691084  RH  033%=      5-min Rain = 0
KFL1 160603Z 04006KT 07/M08 A3016 RMK A01 T00711083  RH  032%=      5-min Rain = 0
KFL1 160604Z 04007KT 07/M08 A3016 RMK A01 T00701083  RH  033%=      5-min Rain = 0
KFL1 160605Z 03006KT 07/M08 A3016 RMK A01 T00701082  RH  033%=      5-min Rain = 0
KFL1 160606Z 03005KT 07/M08 A3016 RMK A01 T00701082  RH  033%=      5-min Rain = 0
KFL1 160607Z 03005KT 07/M08 A3016 RMK A01 T00681084  RH  033%=      5-min Rain = 0
KFL1 160608Z 04007KT 07/M09 A3016 RMK A01 T00661086  RH  033%=      5-min Rain = 0
KFL1 160609Z 04006KT 07/M09 A3016 RMK A01 T00661086  RH  033%=      5-min Rain = 0
KFL1 160610Z 03007KT 07/M09 A3016 RMK A01 T00681088  RH  032%=      5-min Rain = 0
KFL1 160611Z 03007KT 07/M09 A3016 RMK A01 T00691090  RH  031%=      5-min Rain = 0
KFL1 160612Z 04006KT 07/M09 A3016 RMK A01 T00721091  RH  030%=      5-min Rain = 0
KFL1 160613Z 04007KT 07/M09 A3016 RMK A01 T00721092  RH  030%=      5-min Rain = 0
KFL1 160614Z 04008KT 07/M09 A3016 RMK A01 T00731092  RH  030%=      5-min Rain = 0
KFL1 160615Z 03007KT 08/M09 A3016 RMK A01 T00761089  RH  030%=      5-min Rain = 0
KFL1 160616Z 03006KT 08/M09 A3016 RMK A01 T00761091  RH  030%=      5-min Rain = 0
KFL1 160617Z 03005KT 08/M09 A3016 RMK A01 T00751092  RH  030%=      5-min Rain = 0
KFL1 160618Z 03006KT 08/M09 A3016 RMK A01 T00761091  RH  029%=      5-min Rain = 0
KFL1 160619Z 04006KT 07/M09 A3016 RMK A01 T00741093  RH  029%=      5-min Rain = 0
KFL1 160620Z 04006KT 07/M09 A3016 RMK A01 T00741093  RH  030%=      5-min Rain = 0
KFL1 160621Z 04006KT 07/M09 A3016 RMK A01 T00741091  RH  030%=      5-min Rain = 0
KFL1 160622Z 04006KT 07/M09 A3016 RMK A01 T00731088  RH  031%=      5-min Rain = 0
KFL1 160623Z 04006KT 07/M09 A3016 RMK A01 T00721086  RH  031%=      5-min Rain = 0
KFL1 160624Z 04006KT 07/M08 A3016 RMK A01 T00711082  RH  033%=      5-min Rain = 0
KFL1 160625Z 04006KT 07/M08 A3016 RMK A01 T00691080  RH  034%=      5-min Rain = 0
KFL1 160626Z 04007KT 07/M08 A3016 RMK A01 T00661078  RH  035%=      5-min Rain = 0
KFL1 160627Z 04007KT 07/M08 A3016 RMK A01 T00661076  RH  036%=      5-min Rain = 0
KFL1 160628Z 03006KT 06/M08 A3016 RMK A01 T00641078  RH  035%=      5-min Rain = 0
KFL1 160629Z 03007KT 06/M08 A3016 RMK A01 T00641077  RH  036%=      5-min Rain = 0
KFL1 160630Z 03007KT 06/M08 A3016 RMK A01 T00641079  RH  035%=      5-min Rain = 0
KFL1 160631Z 03007KT 07/M08 A3016 RMK A01 T00651080  RH  035%=      5-min Rain = 0
KFL1 160632Z 03008KT 07/M08 A3016 RMK A01 T00661081  RH  034%=      5-min Rain = 0
KFL1 160633Z 03007KT 07/M08 A3016 RMK A01 T00671083  RH  033%=      5-min Rain = 0
KFL1 160634Z 03008KT 07/M09 A3016 RMK A01 T00681086  RH  032%=      5-min Rain = 0
KFL1 160635Z 04007KT 07/M09 A3016 RMK A01 T00701089  RH  031%=      5-min Rain = 0
KFL1 160636Z 04008KT 07/M09 A3015 RMK A01 T00721089  RH  031%=      5-min Rain = 0
KFL1 160637Z 04008KT 07/M09 A3015 RMK A01 T00741088  RH  031%=      5-min Rain = 0
KFL1 160638Z 03008KT 07/M09 A3015 RMK A01 T00721089  RH  031%=      5-min Rain = 0
KFL1 160639Z 04007KT 07/M09 A3015 RMK A01 T00721088  RH  031%=      5-min Rain = 0
KFL1 160640Z 04007KT 07/M08 A3015 RMK A01 T00701081  RH  033%=      5-min Rain = 0
KFL1 160641Z 04007KT 07/M08 A3015 RMK A01 T00651079  RH  035%=      5-min Rain = 0
KFL1 160642Z 05008KT 06/M07 A3015 RMK A01 T00641074  RH  037%=      5-min Rain = 0
KFL1 160643Z 04008KT 06/M08 A3015 RMK A01 T00601075  RH  037%=      5-min Rain = 0
KFL1 160644Z 04008KT 06/M08 A3015 RMK A01 T00591075  RH  038%=      5-min Rain = 0
KFL1 160645Z 04008KT 06/M08 A3015 RMK A01 T00571075  RH  038%=      5-min Rain = 0
KFL1 160646Z 04008KT 06/M07 A3015 RMK A01 T00571073  RH  038%=      5-min Rain = 0
KFL1 160647Z 04009KT 06/M08 A3015 RMK A01 T00561076  RH  038%=      5-min Rain = 0
KFL1 160648Z 03009KT 06/M08 A3015 RMK A01 T00561079  RH  037%=      5-min Rain = 0
KFL1 160649Z 04009KT 06/M08 A3015 RMK A01 T00591079  RH  037%=      5-min Rain = 0
KFL1 160650Z 04010KT 06/M08 A3015 RMK A01 T00591080  RH  036%=      5-min Rain = 0
KFL1 160651Z 04009KT 06/M08 A3015 RMK A01 T00601080  RH  036%=      5-min Rain = 0
KFL1 160652Z 04009KT 06/M08 A3015 RMK A01 T00601081  RH  036%=      5-min Rain = 0
KFL1 160653Z 04009KT 06/M08 A3015 RMK A01 T00611081  RH  035%=      5-min Rain = 0
KFL1 160654Z 04009KT 06/M08 A3015 RMK A01 T00611082  RH  035%=      5-min Rain = 0
KFL1 160655Z 03009KT 06/M09 A3015 RMK A01 T00621085  RH  034%=      5-min Rain = 0
KFL1 160656Z 04009KT 07/M09 A3015 RMK A01 T00651088  RH  032%=      5-min Rain = 0
KFL1 160657Z 04008KT 07/M09 A3015 RMK A01 T00691090  RH  031%=      5-min Rain = 0
KFL1 160658Z 04008KT 07/M09 A3015 RMK A01 T00711089  RH  031%=      5-min Rain = 0
KFL1 160659Z 04008KT 07/M09 A3015 RMK A01 T00721090  RH  031%=      5-min Rain = 0
KFL1 160700Z 04008KT 07/M09 A3015 RMK A01 T00721089  RH  031%=      5-min Rain = 0
KFL1 160701Z 04008KT 07/M09 A3015 RMK A01 T00721089  RH  031%=      5-min Rain = 0
KFL1 160702Z 04009KT 07/M09 A3015 RMK A01 T00711090  RH  031%=      5-min Rain = 0
KFL1 160703Z 04008KT 07/M09 A3015 RMK A01 T00731089  RH  030%=      5-min Rain = 0
KFL1 160704Z 03009KT 07/M09 A3015 RMK A01 T00721093  RH  030%=      5-min Rain = 0
KFL1 160705Z 04008KT 07/M10 A3015 RMK A01 T00731095  RH  029%=      5-min Rain = 0
KFL1 160706Z 04007KT 08/M10 A3015 RMK A01 T00751097  RH  028%=      5-min Rain = 0
KFL1 160707Z 04007KT 08/M10 A3015 RMK A01 T00771099  RH  028%=      5-min Rain = 0
KFL1 160708Z 04008KT 08/M10 A3015 RMK A01 T00791097  RH  028%=      5-min Rain = 0
KFL1 160709Z 04008KT 08/M10 A3015 RMK A01 T00791097  RH  028%=      5-min Rain = 0
KFL1 160710Z 03008KT 08/M10 A3015 RMK A01 T00791096  RH  028%=      5-min Rain = 0
KFL1 160711Z 04007KT 08/M10 A3015 RMK A01 T00791096  RH  028%=      5-min Rain = 0
KFL1 160712Z 04007KT 08/M10 A3015 RMK A01 T00771098  RH  028%=      5-min Rain = 0
KFL1 160713Z 04007KT 08/M10 A3015 RMK A01 T00791098  RH  027%=      5-min Rain = 0
KFL1 160714Z 04007KT 08/M10 A3015 RMK A01 T00791098  RH  027%=      5-min Rain = 0
KFL1 160715Z 04008KT 08/M10 A3015 RMK A01 T00801099  RH  027%=      5-min Rain = 0
KFL1 160716Z 04007KT 08/M10 A3015 RMK A01 T00811099  RH  027%=      5-min Rain = 0
KFL1 160717Z 04007KT 08/M10 A3015 RMK A01 T00801099  RH  027%=      5-min Rain = 0
KFL1 160718Z 04008KT 08/M10 A3015 RMK A01 T00781095  RH  028%=      5-min Rain = 0
KFL1 160719Z 04007KT 08/M09 A3015 RMK A01 T00751090  RH  030%=      5-min Rain = 0
KFL1 160720Z 04008KT 07/M09 A3015 RMK A01 T00731089  RH  031%=      5-min Rain = 0
KFL1 160721Z 04008KT 07/M09 A3015 RMK A01 T00721088  RH  031%=      5-min Rain = 0
KFL1 160722Z 04008KT 07/M09 A3015 RMK A01 T00691088  RH  032%=      5-min Rain = 0
KFL1 160723Z 04007KT 07/M09 A3015 RMK A01 T00661088  RH  032%=      5-min Rain = 0
KFL1 160724Z 04007KT 06/M09 A3014 RMK A01 T00631088  RH  033%=      5-min Rain = 0
KFL1 160725Z 04008KT 06/M09 A3014 RMK A01 T00621090  RH  033%=      5-min Rain = 0
KFL1 160726Z 04009KT 06/M09 A3014 RMK A01 T00641092  RH  032%=      5-min Rain = 0
KFL1 160727Z 04008KT 07/M09 A3014 RMK A01 T00651093  RH  031%=      5-min Rain = 0
KFL1 160728Z 04007KT 07/M10 A3014 RMK A01 T00661095  RH  031%=      5-min Rain = 0
KFL1 160729Z 04006KT 07/M10 A3014 RMK A01 T00661098  RH  030%=      5-min Rain = 0
KFL1 160730Z 04004KT 07/M10 A3014 RMK A01 T00681096  RH  030%=      5-min Rain = 0
KFL1 160731Z 05003KT 07/M10 A3014 RMK A01 T00661096  RH  030%=      5-min Rain = 0
KFL1 160732Z 05006KT 07/M09 A3014 RMK A01 T00661093  RH  031%=      5-min Rain = 0
KFL1 160733Z 05004KT 07/M09 A3014 RMK A01 T00661093  RH  031%=      5-min Rain = 0
KFL1 160734Z 04006KT 06/M09 A3014 RMK A01 T00631093  RH  032%=      5-min Rain = 0
KFL1 160735Z 03008KT 06/M09 A3014 RMK A01 T00611093  RH  032%=      5-min Rain = 0
KFL1 160736Z 04006KT 06/M10 A3014 RMK A01 T00621096  RH  031%=      5-min Rain = 0
KFL1 160737Z 05004KT 07/M10 A3014 RMK A01 T00651097  RH  030%=      5-min Rain = 0
KFL1 160738Z 05005KT 07/M09 A3015 RMK A01 T00681094  RH  031%=      5-min Rain = 0
KFL1 160739Z 05005KT 06/M09 A3014 RMK A01 T00641089  RH  032%=      5-min Rain = 0
KFL1 160740Z 05007KT 06/M09 A3014 RMK A01 T00611087  RH  034%=      5-min Rain = 0
KFL1 160741Z 04007KT 06/M09 A3014 RMK A01 T00591088  RH  034%=      5-min Rain = 0
KFL1 160742Z 05007KT 06/M09 A3014 RMK A01 T00591090  RH  034%=      5-min Rain = 0
KFL1 160743Z 04006KT 06/M09 A3015 RMK A01 T00601090  RH  033%=      5-min Rain = 0
KFL1 160744Z 04008KT 06/M09 A3015 RMK A01 T00601090  RH  033%=      5-min Rain = 0
KFL1 160745Z 03009KT 06/M09 A3015 RMK A01 T00601091  RH  033%=      5-min Rain = 0
KFL1 160746Z 03008KT 06/M09 A3015 RMK A01 T00611092  RH  032%=      5-min Rain = 0
KFL1 160747Z 03008KT 07/M09 A3015 RMK A01 T00651092  RH  032%=      5-min Rain = 0
KFL1 160748Z 03008KT 07/M09 A3015 RMK A01 T00671092  RH  031%=      5-min Rain = 0
KFL1 160749Z 03007KT 07/M09 A3015 RMK A01 T00671092  RH  031%=      5-min Rain = 0
KFL1 160750Z 03005KT 07/M09 A3015 RMK A01 T00671092  RH  031%=      5-min Rain = 0
KFL1 160751Z 04006KT 07/M09 A3015 RMK A01 T00681092  RH  031%=      5-min Rain = 0
KFL1 160752Z 05004KT 07/M09 A3015 RMK A01 T00671091  RH  031%=      5-min Rain = 0
KFL1 160753Z 04006KT 07/M09 A3015 RMK A01 T00661093  RH  031%=      5-min Rain = 0
KFL1 160754Z 04006KT 07/M09 A3014 RMK A01 T00661094  RH  031%=      5-min Rain = 0
KFL1 160755Z 04008KT 07/M10 A3014 RMK A01 T00671095  RH  030%=      5-min Rain = 0
KFL1 160756Z 04008KT 07/M10 A3014 RMK A01 T00691097  RH  030%=      5-min Rain = 0
KFL1 160757Z 04007KT 07/M10 A3014 RMK A01 T00731096  RH  029%=      5-min Rain = 0
KFL1 160758Z 04006KT 07/M10 A3014 RMK A01 T00741100  RH  028%=      5-min Rain = 0
KFL1 160759Z 05006KT 08/M10 A3014 RMK A01 T00761099  RH  028%=      5-min Rain = 0
KFL1 160800Z 04005KT 08/M10 A3014 RMK A01 T00751100  RH  028%=      5-min Rain = 0
KFL1 160801Z 04006KT 08/M10 A3014 RMK A01 T00761097  RH  028%=      5-min Rain = 0
KFL1 160802Z 05007KT 08/M09 A3014 RMK A01 T00751094  RH  029%=      5-min Rain = 0
KFL1 160803Z 04006KT 07/M10 A3014 RMK A01 T00721095  RH  029%=      5-min Rain = 0
KFL1 160804Z 04005KT 07/M10 A3014 RMK A01 T00711095  RH  030%=      5-min Rain = 0
KFL1 160805Z 03005KT 07/M09 A3014 RMK A01 T00721092  RH  030%=      5-min Rain = 0
KFL1 160806Z 03005KT 07/M09 A3014 RMK A01 T00711092  RH  030%=      5-min Rain = 0
KFL1 160807Z 03006KT 07/M09 A3014 RMK A01 T00701091  RH  031%=      5-min Rain = 0
KFL1 160808Z 04006KT 07/M09 A3014 RMK A01 T00711090  RH  031%=      5-min Rain = 0
KFL1 160809Z 04007KT 07/M09 A3014 RMK A01 T00721088  RH  031%=      5-min Rain = 0
KFL1 160810Z 04006KT 07/M09 A3014 RMK A01 T00691090  RH  031%=      5-min Rain = 0
KFL1 160811Z 05006KT 07/M09 A3014 RMK A01 T00691092  RH  031%=      5-min Rain = 0
KFL1 160812Z 05006KT 07/M09 A3014 RMK A01 T00691094  RH  030%=      5-min Rain = 0
KFL1 160813Z 04006KT 07/M10 A3014 RMK A01 T00701095  RH  030%=      5-min Rain = 0
KFL1 160814Z 04005KT 07/M09 A3014 RMK A01 T00711093  RH  030%=      5-min Rain = 0
KFL1 160815Z 04006KT 07/M09 A3014 RMK A01 T00741091  RH  030%=      5-min Rain = 0
KFL1 160816Z 05007KT 07/M09 A3014 RMK A01 T00711093  RH  030%=      5-min Rain = 0
KFL1 160817Z 04007KT 07/M09 A3014 RMK A01 T00701093  RH  030%=      5-min Rain = 0
KFL1 160818Z 05007KT 07/M09 A3014 RMK A01 T00711091  RH  031%=      5-min Rain = 0
KFL1 160819Z 05006KT 07/M09 A3014 RMK A01 T00701091  RH  031%=      5-min Rain = 0
KFL1 160820Z 05006KT 07/M09 A3014 RMK A01 T00681089  RH  032%=      5-min Rain = 0
KFL1 160821Z 04006KT 07/M09 A3013 RMK A01 T00651086  RH  033%=      5-min Rain = 0
KFL1 160822Z 04007KT 06/M09 A3013 RMK A01 T00641086  RH  033%=      5-min Rain = 0
KFL1 160823Z 04006KT 06/M09 A3014 RMK A01 T00621089  RH  033%=      5-min Rain = 0
KFL1 160824Z 03005KT 06/M09 A3014 RMK A01 T00621090  RH  033%=      5-min Rain = 0
KFL1 160825Z 04004KT 06/M09 A3014 RMK A01 T00621089  RH  033%=      5-min Rain = 0
KFL1 160826Z 06005KT 06/M09 A3014 RMK A01 T00621089  RH  033%=      5-min Rain = 0
KFL1 160827Z 06006KT 06/M09 A3014 RMK A01 T00631088  RH  033%=      5-min Rain = 0
KFL1 160828Z 06004KT 06/M09 A3014 RMK A01 T00611088  RH  033%=      5-min Rain = 0
KFL1 160829Z 05004KT 06/M08 A3014 RMK A01 T00611084  RH  035%=      5-min Rain = 0
KFL1 160830Z 05005KT 06/M08 A3014 RMK A01 T00581083  RH  036%=      5-min Rain = 0
KFL1 160831Z 05006KT 06/M09 A3014 RMK A01 T00571085  RH  035%=      5-min Rain = 0
KFL1 160832Z 05006KT 06/M09 A3014 RMK A01 T00581089  RH  034%=      5-min Rain = 0
KFL1 160833Z 04005KT 06/M09 A3014 RMK A01 T00601093  RH  032%=      5-min Rain = 0
KFL1 160834Z 04005KT 06/M10 A3014 RMK A01 T00621096  RH  031%=      5-min Rain = 0
KFL1 160835Z 04006KT 07/M10 A3014 RMK A01 T00651098  RH  030%=      5-min Rain = 0
KFL1 160836Z 04005KT 07/M10 A3014 RMK A01 T00661099  RH  030%=      5-min Rain = 0
KFL1 160837Z 04004KT 07/M10 A3014 RMK A01 T00671101  RH  029%=      5-min Rain = 0
KFL1 160838Z 03004KT 07/M10 A3014 RMK A01 T00691096  RH  030%=      5-min Rain = 0
KFL1 160839Z 03005KT 06/M09 A3014 RMK A01 T00631092  RH  032%=      5-min Rain = 0
KFL1 160840Z 03006KT 06/M09 A3014 RMK A01 T00571090  RH  034%=      5-min Rain = 0
KFL1 160841Z 03006KT 05/M09 A3014 RMK A01 T00521090  RH  035%=      5-min Rain = 0
KFL1 160842Z 03006KT 05/M09 A3014 RMK A01 T00521088  RH  036%=      5-min Rain = 0
KFL1 160843Z 04006KT 05/M09 A3014 RMK A01 T00511088  RH  036%=      5-min Rain = 0
KFL1 160844Z 04005KT 05/M09 A3014 RMK A01 T00531086  RH  036%=      5-min Rain = 0
KFL1 160845Z 04005KT 05/M09 A3014 RMK A01 T00531087  RH  036%=      5-min Rain = 0
KFL1 160846Z 04005KT 06/M09 A3014 RMK A01 T00571088  RH  034%=      5-min Rain = 0
KFL1 160847Z 04005KT 06/M09 A3014 RMK A01 T00591089  RH  034%=      5-min Rain = 0
KFL1 160848Z 04005KT 06/M09 A3014 RMK A01 T00611091  RH  033%=      5-min Rain = 0
KFL1 160849Z 04005KT 07/M10 A3014 RMK A01 T00651096  RH  031%=      5-min Rain = 0
KFL1 160850Z 04004KT 07/M10 A3014 RMK A01 T00701097  RH  029%=      5-min Rain = 0
KFL1 160851Z 04005KT 07/M09 A3014 RMK A01 T00731088  RH  031%=      5-min Rain = 0
KFL1 160852Z 05006KT 07/M08 A3014 RMK A01 T00691083  RH  033%=      5-min Rain = 0
KFL1 160853Z 04007KT 07/M08 A3014 RMK A01 T00651079  RH  035%=      5-min Rain = 0
KFL1 160854Z 04007KT 06/M08 A3014 RMK A01 T00601081  RH  036%=      5-min Rain = 0
KFL1 160855Z 03006KT 06/M08 A3014 RMK A01 T00571082  RH  036%=      5-min Rain = 0
KFL1 160856Z 03005KT 06/M08 A3014 RMK A01 T00571081  RH  036%=      5-min Rain = 0
KFL1 160857Z 05004KT 06/M08 A3014 RMK A01 T00561080  RH  037%=      5-min Rain = 0
KFL1 160858Z 04006KT 06/M08 A3014 RMK A01 T00551076  RH  038%=      5-min Rain = 0
KFL1 160859Z 04007KT 05/M08 A3014 RMK A01 T00541076  RH  039%=      5-min Rain = 0
KFL1 160900Z 04007KT 05/M08 A3014 RMK A01 T00531077  RH  038%=      5-min Rain = 0
KFL1 160901Z 04007KT 06/M08 A3014 RMK A01 T00551082  RH  037%=      5-min Rain = 0
KFL1 160902Z 04006KT 06/M09 A3014 RMK A01 T00571085  RH  035%=      5-min Rain = 0
KFL1 160903Z 04006KT 06/M09 A3014 RMK A01 T00611086  RH  034%=      5-min Rain = 0
KFL1 160904Z 04006KT 06/M09 A3014 RMK A01 T00631086  RH  034%=      5-min Rain = 0
KFL1 160905Z 04006KT 06/M09 A3014 RMK A01 T00641087  RH  033%=      5-min Rain = 0
KFL1 160906Z 04006KT 07/M09 A3014 RMK A01 T00671088  RH  032%=      5-min Rain = 0
KFL1 160907Z 04006KT 07/M09 A3013 RMK A01 T00701087  RH  032%=      5-min Rain = 0
KFL1 160908Z 04006KT 07/M09 A3013 RMK A01 T00691088  RH  032%=      5-min Rain = 0
KFL1 160909Z 04006KT 07/M09 A3013 RMK A01 T00681087  RH  032%=      5-min Rain = 0
KFL1 160910Z 04006KT 07/M09 A3013 RMK A01 T00681086  RH  032%=      5-min Rain = 0
KFL1 160911Z 04006KT 07/M08 A3013 RMK A01 T00691076  RH  035%=      5-min Rain = 0
KFL1 160912Z 04007KT 07/M08 A3013 RMK A01 T00661075  RH  036%=      5-min Rain = 0
KFL1 160913Z 04007KT 06/M08 A3013 RMK A01 T00641075  RH  036%=      5-min Rain = 0
KFL1 160914Z 04006KT 07/M08 A3013 RMK A01 T00651077  RH  036%=      5-min Rain = 0
KFL1 160915Z 04006KT 06/M08 A3013 RMK A01 T00641079  RH  035%=      5-min Rain = 0
KFL1 160916Z 04007KT 06/M08 A3014 RMK A01 T00631081  RH  035%=      5-min Rain = 0
KFL1 160917Z 04007KT 06/M09 A3014 RMK A01 T00641085  RH  034%=      5-min Rain = 0
KFL1 160918Z 04007KT 07/M09 A3013 RMK A01 T00671085  RH  033%=      5-min Rain = 0
KFL1 160919Z 04007KT 07/M09 A3013 RMK A01 T00711087  RH  031%=      5-min Rain = 0
KFL1 160920Z 04006KT 08/M09 A3013 RMK A01 T00751086  RH  031%=      5-min Rain = 0
KFL1 160921Z 04005KT 07/M09 A3014 RMK A01 T00741089  RH  030%=      5-min Rain = 0
KFL1 160922Z 04007KT 07/M09 A3014 RMK A01 T00731090  RH  030%=      5-min Rain = 0
KFL1 160923Z 04006KT 07/M09 A3014 RMK A01 T00731091  RH  030%=      5-min Rain = 0
KFL1 160924Z 04005KT 07/M09 A3014 RMK A01 T00741093  RH  030%=      5-min Rain = 0
KFL1 160925Z 04005KT 08/M09 A3014 RMK A01 T00751093  RH  029%=      5-min Rain = 0
KFL1 160926Z 03006KT 08/M09 A3014 RMK A01 T00751094  RH  029%=      5-min Rain = 0
KFL1 160927Z 03005KT 08/M09 A3014 RMK A01 T00781093  RH  029%=      5-min Rain = 0
KFL1 160928Z 03006KT 08/M09 A3014 RMK A01 T00761086  RH  031%=      5-min Rain = 0
KFL1 160929Z 03006KT 07/M08 A3014 RMK A01 T00731083  RH  032%=      5-min Rain = 0
KFL1 160930Z 03006KT 07/M08 A3014 RMK A01 T00691079  RH  034%=      5-min Rain = 0
KFL1 160931Z 03006KT 07/M08 A3014 RMK A01 T00651080  RH  035%=      5-min Rain = 0
KFL1 160932Z 03006KT 06/M08 A3014 RMK A01 T00631078  RH  035%=      5-min Rain = 0
KFL1 160933Z 03005KT 06/M08 A3014 RMK A01 T00621078  RH  036%=      5-min Rain = 0
KFL1 160934Z 04005KT 06/M08 A3014 RMK A01 T00631079  RH  035%=      5-min Rain = 0
KFL1 160935Z 04005KT 06/M09 A3014 RMK A01 T00631086  RH  033%=      5-min Rain = 0
KFL1 160936Z 03005KT 07/M09 A3014 RMK A01 T00671088  RH  032%=      5-min Rain = 0
KFL1 160937Z 03004KT 07/M09 A3014 RMK A01 T00681089  RH  031%=      5-min Rain = 0
KFL1 160938Z 03004KT 07/M09 A3014 RMK A01 T00691086  RH  032%=      5-min Rain = 0
KFL1 160939Z 03003KT 07/M08 A3014 RMK A01 T00681082  RH  034%=      5-min Rain = 0
KFL1 160940Z 04005KT 07/M08 A3014 RMK A01 T00661081  RH  034%=      5-min Rain = 0
KFL1 160941Z 04006KT 07/M08 A3014 RMK A01 T00651079  RH  035%=      5-min Rain = 0
KFL1 160942Z 04006KT 07/M08 A3013 RMK A01 T00651083  RH  034%=      5-min Rain = 0
KFL1 160943Z 04005KT 07/M09 A3013 RMK A01 T00651085  RH  033%=      5-min Rain = 0
KFL1 160944Z 04005KT 07/M08 A3013 RMK A01 T00671084  RH  033%=      5-min Rain = 0
KFL1 160945Z 05004KT 07/M08 A3013 RMK A01 T00671084  RH  033%=      5-min Rain = 0
KFL1 160946Z 04004KT 07/M08 A3013 RMK A01 T00671080  RH  034%=      5-min Rain = 0
KFL1 160947Z 04006KT 07/M08 A3013 RMK A01 T00671078  RH  035%=      5-min Rain = 0
KFL1 160948Z 04005KT 07/M08 A3013 RMK A01 T00661081  RH  034%=      5-min Rain = 0
KFL1 160949Z 04005KT 07/M08 A3013 RMK A01 T00661083  RH  034%=      5-min Rain = 0
KFL1 160950Z 04006KT 07/M08 A3013 RMK A01 T00681083  RH  033%=      5-min Rain = 0
KFL1 160951Z 04006KT 07/M09 A3013 RMK A01 T00691086  RH  032%=      5-min Rain = 0
KFL1 160952Z 04006KT 07/M09 A3013 RMK A01 T00711088  RH  031%=      5-min Rain = 0
KFL1 160953Z 04006KT 07/M09 A3013 RMK A01 T00741087  RH  031%=      5-min Rain = 0
KFL1 160954Z 04005KT 07/M09 A3013 RMK A01 T00731087  RH  031%=      5-min Rain = 0
KFL1 160955Z 03005KT 07/M09 A3013 RMK A01 T00731087  RH  031%=      5-min Rain = 0
KFL1 160956Z 04005KT 07/M08 A3013 RMK A01 T00731084  RH  032%=      5-min Rain = 0
KFL1 160957Z 04005KT 07/M08 A3013 RMK A01 T00711083  RH  032%=      5-min Rain = 0
KFL1 160958Z 03006KT 07/M08 A3013 RMK A01 T00691078  RH  034%=      5-min Rain = 0
KFL1 160959Z 03006KT 07/M08 A3013 RMK A01 T00651077  RH  035%=      5-min Rain = 0
KFL1 161000Z 04006KT 06/M08 A3013 RMK A01 T00621077  RH  036%=      5-min Rain = 0
KFL1 161001Z 03006KT 06/M08 A3013 RMK A01 T00621075  RH  037%=      5-min Rain = 0
KFL1 161002Z 03006KT 06/M08 A3013 RMK A01 T00611075  RH  037%=      5-min Rain = 0
KFL1 161003Z 04006KT 06/M08 A3013 RMK A01 T00621075  RH  037%=      5-min Rain = 0
KFL1 161004Z 04006KT 06/M08 A3013 RMK A01 T00631080  RH  035%=      5-min Rain = 0
KFL1 161005Z 04005KT 07/M08 A3013 RMK A01 T00661082  RH  034%=      5-min Rain = 0
KFL1 161006Z 05004KT 07/M09 A3013 RMK A01 T00661085  RH  033%=      5-min Rain = 0
KFL1 161007Z 04004KT 07/M08 A3013 RMK A01 T00671081  RH  034%=      5-min Rain = 0
KFL1 161008Z 04005KT 07/M08 A3013 RMK A01 T00651076  RH  036%=      5-min Rain = 0
KFL1 161009Z 04004KT 07/M07 A3013 RMK A01 T00651069  RH  038%=      5-min Rain = 0
KFL1 161010Z 05005KT 06/M07 A3013 RMK A01 T00621069  RH  038%=      5-min Rain = 0
KFL1 161011Z 05006KT 06/M07 A3013 RMK A01 T00591069  RH  039%=      5-min Rain = 0
KFL1 161012Z 05007KT 06/M07 A3013 RMK A01 T00591068  RH  040%=      5-min Rain = 0
KFL1 161013Z 04007KT 06/M07 A3013 RMK A01 T00581068  RH  040%=      5-min Rain = 0
KFL1 161014Z 04006KT 06/M07 A3013 RMK A01 T00561069  RH  040%=      5-min Rain = 0
KFL1 161015Z 04008KT 06/M07 A3013 RMK A01 T00571070  RH  040%=      5-min Rain = 0
KFL1 161016Z 04007KT 06/M07 A3013 RMK A01 T00561071  RH  039%=      5-min Rain = 0
KFL1 161017Z 04007KT 06/M07 A3013 RMK A01 T00561072  RH  039%=      5-min Rain = 0
KFL1 161018Z 04007KT 06/M07 A3013 RMK A01 T00561072  RH  039%=      5-min Rain = 0
KFL1 161019Z 04007KT 06/M07 A3013 RMK A01 T00551071  RH  040%=      5-min Rain = 0
KFL1 161020Z 04007KT 06/M07 A3013 RMK A01 T00571070  RH  040%=      5-min Rain = 0
KFL1 161021Z 04007KT 06/M07 A3013 RMK A01 T00571071  RH  039%=      5-min Rain = 0
KFL1 161022Z 04007KT 06/M07 A3013 RMK A01 T00581074  RH  038%=      5-min Rain = 0
KFL1 161023Z 04007KT 06/M08 A3013 RMK A01 T00611079  RH  036%=      5-min Rain = 0
KFL1 161024Z 03007KT 06/M08 A3013 RMK A01 T00641082  RH  034%=      5-min Rain = 0
KFL1 161025Z 04006KT 07/M08 A3013 RMK A01 T00661084  RH  033%=      5-min Rain = 0
KFL1 161026Z 04006KT 07/M09 A3013 RMK A01 T00681086  RH  032%=      5-min Rain = 0
KFL1 161027Z 04006KT 07/M09 A3013 RMK A01 T00711087  RH  032%=      5-min Rain = 0
KFL1 161028Z 04005KT 07/M09 A3013 RMK A01 T00721089  RH  031%=      5-min Rain = 0
KFL1 161029Z 03005KT 07/M09 A3013 RMK A01 T00731091  RH  030%=      5-min Rain = 0
KFL1 161030Z 04005KT 07/M09 A3013 RMK A01 T00731089  RH  030%=      5-min Rain = 0
KFL1 161031Z 03005KT 07/M09 A3013 RMK A01 T00731087  RH  031%=      5-min Rain = 0
KFL1 161032Z 03005KT 07/M08 A3013 RMK A01 T00721084  RH  032%=      5-min Rain = 0
KFL1 161033Z 03005KT 07/M08 A3013 RMK A01 T00711079  RH  033%=      5-min Rain = 0
KFL1 161034Z 03005KT 07/M08 A3013 RMK A01 T00661077  RH  035%=      5-min Rain = 0
KFL1 161035Z 03006KT 06/M07 A3013 RMK A01 T00641073  RH  037%=      5-min Rain = 0
KFL1 161036Z 03006KT 06/M07 A3013 RMK A01 T00601072  RH  038%=      5-min Rain = 0
KFL1 161037Z 03006KT 06/M07 A3013 RMK A01 T00581071  RH  039%=      5-min Rain = 0
KFL1 161038Z 03006KT 06/M07 A3013 RMK A01 T00571072  RH  039%=      5-min Rain = 0
KFL1 161039Z 03006KT 06/M07 A3013 RMK A01 T00561074  RH  039%=      5-min Rain = 0
KFL1 161040Z 03006KT 06/M07 A3013 RMK A01 T00561074  RH  039%=      5-min Rain = 0
KFL1 161041Z 03006KT 06/M08 A3013 RMK A01 T00561078  RH  037%=      5-min Rain = 0
KFL1 161042Z 03007KT 06/M08 A3013 RMK A01 T00601080  RH  036%=      5-min Rain = 0
KFL1 161043Z 03006KT 06/M08 A3013 RMK A01 T00611083  RH  035%=      5-min Rain = 0
KFL1 161044Z 03006KT 06/M08 A3013 RMK A01 T00641084  RH  034%=      5-min Rain = 0
KFL1 161045Z 04005KT 07/M09 A3013 RMK A01 T00651085  RH  033%=      5-min Rain = 0
KFL1 161046Z 03006KT 07/M08 A3013 RMK A01 T00671083  RH  033%=      5-min Rain = 0
KFL1 161047Z 03006KT 07/M08 A3013 RMK A01 T00671082  RH  034%=      5-min Rain = 0
KFL1 161048Z 03006KT 07/M08 A3013 RMK A01 T00671080  RH  034%=      5-min Rain = 0
KFL1 161049Z 03006KT 07/M08 A3013 RMK A01 T00661079  RH  035%=      5-min Rain = 0
KFL1 161050Z 03007KT 06/M08 A3013 RMK A01 T00631080  RH  035%=      5-min Rain = 0
KFL1 161051Z 03007KT 06/M08 A3013 RMK A01 T00641080  RH  035%=      5-min Rain = 0
KFL1 161052Z 03006KT 07/M08 A3013 RMK A01 T00651082  RH  034%=      5-min Rain = 0
KFL1 161053Z 03005KT 07/M08 A3013 RMK A01 T00651083  RH  034%=      5-min Rain = 0
KFL1 161054Z 03004KT 07/M08 A3013 RMK A01 T00651078  RH  035%=      5-min Rain = 0
KFL1 161055Z 03004KT 06/M07 A3013 RMK A01 T00641074  RH  037%=      5-min Rain = 0
KFL1 161056Z 03004KT 06/M07 A3013 RMK A01 T00611073  RH  038%=      5-min Rain = 0
KFL1 161057Z 03005KT 06/M08 A3013 RMK A01 T00591075  RH  038%=      5-min Rain = 0
KFL1 161058Z 04005KT 06/M08 A3013 RMK A01 T00601076  RH  037%=      5-min Rain = 0
KFL1 161059Z 04005KT 06/M08 A3013 RMK A01 T00591079  RH  036%=      5-min Rain = 0
KFL1 161100Z 04005KT 06/M08 A3013 RMK A01 T00591079  RH  036%=      5-min Rain = 0
KFL1 161101Z 04005KT 06/M08 A3013 RMK A01 T00591077  RH  037%=      5-min Rain = 0
KFL1 161102Z 04005KT 06/M07 A3013 RMK A01 T00591072  RH  038%=      5-min Rain = 0
KFL1 161103Z 04005KT 06/M07 A3013 RMK A01 T00581069  RH  039%=      5-min Rain = 0
KFL1 161104Z 04006KT 06/M07 A3013 RMK A01 T00581068  RH  040%=      5-min Rain = 0
KFL1 161105Z 04008KT 06/M07 A3013 RMK A01 T00571069  RH  040%=      5-min Rain = 0
KFL1 161106Z 04007KT 06/M07 A3013 RMK A01 T00561071  RH  039%=      5-min Rain = 0
KFL1 161107Z 04007KT 06/M07 A3013 RMK A01 T00561073  RH  039%=      5-min Rain = 0
KFL1 161108Z 04007KT 06/M07 A3013 RMK A01 T00581072  RH  039%=      5-min Rain = 0
KFL1 161109Z 05007KT 06/M07 A3013 RMK A01 T00571073  RH  039%=      5-min Rain = 0
KFL1 161110Z 05007KT 06/M07 A3013 RMK A01 T00591073  RH  038%=      5-min Rain = 0
KFL1 161111Z 05007KT 06/M07 A3013 RMK A01 T00591074  RH  038%=      5-min Rain = 0
KFL1 161112Z 05007KT 06/M07 A3013 RMK A01 T00601072  RH  038%=      5-min Rain = 0
KFL1 161113Z 04007KT 06/M08 A3013 RMK A01 T00591075  RH  038%=      5-min Rain = 0
KFL1 161114Z 04008KT 06/M08 A3013 RMK A01 T00591075  RH  038%=      5-min Rain = 0
KFL1 161115Z 04007KT 06/M08 A3013 RMK A01 T00591076  RH  037%=      5-min Rain = 0
KFL1 161116Z 04007KT 06/M08 A3013 RMK A01 T00601076  RH  037%=      5-min Rain = 0
KFL1 161117Z 03007KT 06/M08 A3013 RMK A01 T00581079  RH  037%=      5-min Rain = 0
KFL1 161118Z 04007KT 06/M08 A3013 RMK A01 T00611077  RH  036%=      5-min Rain = 0
KFL1 161119Z 04007KT 06/M08 A3013 RMK A01 T00601080  RH  036%=      5-min Rain = 0
KFL1 161120Z 04008KT 06/M08 A3013 RMK A01 T00611079  RH  036%=      5-min Rain = 0
KFL1 161121Z 04007KT 06/M08 A3013 RMK A01 T00611080  RH  036%=      5-min Rain = 0
KFL1 161122Z 04005KT 06/M08 A3013 RMK A01 T00611081  RH  035%=      5-min Rain = 0
KFL1 161123Z 04006KT 06/M08 A3013 RMK A01 T00611082  RH  035%=      5-min Rain = 0
KFL1 161124Z 04006KT 06/M08 A3013 RMK A01 T00631083  RH  034%=      5-min Rain = 0
KFL1 161125Z 03006KT 07/M09 A3013 RMK A01 T00651085  RH  033%=      5-min Rain = 0
KFL1 161126Z 03006KT 07/M09 A3013 RMK A01 T00661087  RH  033%=      5-min Rain = 0
KFL1 161127Z 03006KT 07/M09 A3013 RMK A01 T00681086  RH  032%=      5-min Rain = 0
KFL1 161128Z 03005KT 07/M08 A3013 RMK A01 T00671082  RH  033%=      5-min Rain = 0
KFL1 161129Z 04005KT 07/M08 A3013 RMK A01 T00651079  RH  035%=      5-min Rain = 0
KFL1 161130Z 04005KT 06/M08 A3013 RMK A01 T00621079  RH  036%=      5-min Rain = 0
KFL1 161131Z 04006KT 06/M08 A3013 RMK A01 T00631082  RH  035%=      5-min Rain = 0
KFL1 161132Z 04006KT 06/M09 A3013 RMK A01 T00641087  RH  033%=      5-min Rain = 0
KFL1 161133Z 04007KT 07/M09 A3013 RMK A01 T00651089  RH  032%=      5-min Rain = 0
KFL1 161134Z 04006KT 07/M09 A3013 RMK A01 T00671089  RH  032%=      5-min Rain = 0
KFL1 161135Z 04007KT 07/M09 A3013 RMK A01 T00681088  RH  032%=      5-min Rain = 0
KFL1 161136Z 03007KT 07/M09 A3013 RMK A01 T00671088  RH  032%=      5-min Rain = 0
KFL1 161137Z 03007KT 07/M09 A3013 RMK A01 T00691087  RH  032%=      5-min Rain = 0
KFL1 161138Z 04007KT 07/M09 A3013 RMK A01 T00701085  RH  032%=      5-min Rain = 0
KFL1 161139Z 04008KT 07/M09 A3013 RMK A01 T00681087  RH  032%=      5-min Rain = 0
KFL1 161140Z 04008KT 07/M08 A3013 RMK A01 T00681084  RH  033%=      5-min Rain = 0
KFL1 161141Z 04007KT 07/M09 A3013 RMK A01 T00671085  RH  033%=      5-min Rain = 0
KFL1 161142Z 05007KT 07/M08 A3013 RMK A01 T00671083  RH  033%=      5-min Rain = 0
KFL1 161143Z 05007KT 07/M08 A3013 RMK A01 T00671083  RH  033%=      5-min Rain = 0
KFL1 161144Z 04007KT 07/M08 A3013 RMK A01 T00661084  RH  033%=      5-min Rain = 0
KFL1 161145Z 05007KT 07/M08 A3013 RMK A01 T00651083  RH  034%=      5-min Rain = 0
KFL1 161146Z 05006KT 06/M08 A3013 RMK A01 T00641081  RH  035%=      5-min Rain = 0
KFL1 161147Z 04006KT 07/M08 A3013 RMK A01 T00651078  RH  035%=      5-min Rain = 0
KFL1 161148Z 04007KT 06/M08 A3013 RMK A01 T00641080  RH  035%=      5-min Rain = 0
KFL1 161149Z 04007KT 06/M08 A3013 RMK A01 T00621084  RH  034%=      5-min Rain = 0
KFL1 161150Z 04006KT 06/M08 A3013 RMK A01 T00631083  RH  034%=      5-min Rain = 0
KFL1 161151Z 05006KT 06/M08 A3013 RMK A01 T00631084  RH  034%=      5-min Rain = 0
KFL1 161152Z 05006KT 06/M08 A3013 RMK A01 T00641083  RH  034%=      5-min Rain = 0
KFL1 161153Z 05006KT 06/M08 A3013 RMK A01 T00631083  RH  034%=      5-min Rain = 0
KFL1 161154Z 05007KT 06/M08 A3013 RMK A01 T00621082  RH  035%=      5-min Rain = 0
KFL1 161155Z 06006KT 06/M08 A3013 RMK A01 T00631081  RH  035%=      5-min Rain = 0
KFL1 161156Z 05006KT 06/M08 A3013 RMK A01 T00631081  RH  035%=      5-min Rain = 0
KFL1 161157Z 05006KT 06/M09 A3013 RMK A01 T00621085  RH  034%=      5-min Rain = 0
KFL1 161158Z 05006KT 06/M09 A3013 RMK A01 T00621087  RH  033%=      5-min Rain = 0
KFL1 161159Z 05006KT 06/M09 A3013 RMK A01 T00631088  RH  033%=      5-min Rain = 0
KFL1 161200Z 05007KT 06/M09 A3013 RMK A01 T00631089  RH  033%=      5-min Rain = 0
KFL1 161201Z 06007KT 06/M09 A3013 RMK A01 T00631089  RH  033%=      5-min Rain = 0
KFL1 161202Z 05006KT 06/M09 A3013 RMK A01 T00631087  RH  033%=      5-min Rain = 0
KFL1 161203Z 06006KT 06/M09 A3013 RMK A01 T00631089  RH  033%=      5-min Rain = 0
KFL1 161204Z 05007KT 07/M09 A3012 RMK A01 T00651087  RH  033%=      5-min Rain = 0
KFL1 161205Z 06007KT 07/M09 A3012 RMK A01 T00651085  RH  033%=      5-min Rain = 0
KFL1 161206Z 06006KT 06/M09 A3012 RMK A01 T00641086  RH  033%=      5-min Rain = 0
KFL1 161207Z 06006KT 07/M09 A3012 RMK A01 T00651087  RH  033%=      5-min Rain = 0
KFL1 161208Z 06006KT 07/M09 A3012 RMK A01 T00651089  RH  032%=      5-min Rain = 0
KFL1 161209Z 06006KT 07/M09 A3012 RMK A01 T00651089  RH  032%=      5-min Rain = 0
KFL1 161210Z 06005KT 07/M09 A3012 RMK A01 T00661088  RH  032%=      5-min Rain = 0
KFL1 161211Z 05006KT 07/M09 A3013 RMK A01 T00651089  RH  032%=      5-min Rain = 0
KFL1 161212Z 06005KT 07/M09 A3013 RMK A01 T00651089  RH  032%=      5-min Rain = 0
KFL1 161213Z 06006KT 07/M09 A3013 RMK A01 T00661087  RH  033%=      5-min Rain = 0
KFL1 161214Z 06005KT 07/M09 A3013 RMK A01 T00651088  RH  033%=      5-min Rain = 0
KFL1 161215Z 06006KT 07/M09 A3013 RMK A01 T00651088  RH  033%=      5-min Rain = 0
KFL1 161216Z 06006KT 07/M09 A3013 RMK A01 T00651088  RH  033%=      5-min Rain = 0
KFL1 161217Z 05006KT 07/M09 A3013 RMK A01 T00651089  RH  032%=      5-min Rain = 0
KFL1 161218Z 06006KT 07/M09 A3013 RMK A01 T00651090  RH  032%=      5-min Rain = 0
KFL1 161219Z 05006KT 07/M09 A3013 RMK A01 T00651090  RH  032%=      5-min Rain = 0
KFL1 161220Z 05006KT 07/M09 A3013 RMK A01 T00661090  RH  032%=      5-min Rain = 0
KFL1 161221Z 05006KT 07/M09 A3013 RMK A01 T00661092  RH  031%=      5-min Rain = 0
KFL1 161222Z 05005KT 07/M09 A3013 RMK A01 T00671093  RH  031%=      5-min Rain = 0
KFL1 161223Z 05005KT 07/M09 A3013 RMK A01 T00671093  RH  031%=      5-min Rain = 0
KFL1 161224Z 05006KT 07/M09 A3013 RMK A01 T00681094  RH  030%=      5-min Rain = 0
KFL1 161225Z 05006KT 07/M09 A3013 RMK A01 T00691094  RH  030%=      5-min Rain = 0
KFL1 161226Z 05005KT 07/M09 A3013 RMK A01 T00691094  RH  030%=      5-min Rain = 0
KFL1 161227Z 04006KT 07/M10 A3013 RMK A01 T00691095  RH  030%=      5-min Rain = 0
KFL1 161228Z 05006KT 07/M10 A3013 RMK A01 T00691095  RH  030%=      5-min Rain = 0
KFL1 161229Z 05007KT 07/M10 A3013 RMK A01 T00681095  RH  030%=      5-min Rain = 0
KFL1 161230Z 06006KT 07/M10 A3013 RMK A01 T00691096  RH  030%=      5-min Rain = 0
KFL1 161231Z 06005KT 07/M10 A3013 RMK A01 T00691095  RH  030%=      5-min Rain = 0
KFL1 161232Z 05005KT 07/M09 A3013 RMK A01 T00701093  RH  030%=      5-min Rain = 0
KFL1 161233Z 06004KT 07/M09 A3013 RMK A01 T00691093  RH  030%=      5-min Rain = 0
KFL1 161234Z 06005KT 07/M09 A3013 RMK A01 T00691091  RH  031%=      5-min Rain = 0
KFL1 161235Z 05006KT 07/M09 A3013 RMK A01 T00681092  RH  031%=      5-min Rain = 0
KFL1 161236Z 06005KT 07/M09 A3013 RMK A01 T00671091  RH  031%=      5-min Rain = 0
KFL1 161237Z 06006KT 07/M09 A3013 RMK A01 T00671092  RH  031%=      5-min Rain = 0
KFL1 161238Z 05006KT 07/M09 A3013 RMK A01 T00681093  RH  031%=      5-min Rain = 0
KFL1 161239Z 05007KT 07/M09 A3013 RMK A01 T00681094  RH  030%=      5-min Rain = 0
KFL1 161240Z 05007KT 07/M10 A3013 RMK A01 T00691095  RH  030%=      5-min Rain = 0
KFL1 161241Z 05007KT 07/M10 A3013 RMK A01 T00691095  RH  030%=      5-min Rain = 0
KFL1 161242Z 05007KT 07/M09 A3013 RMK A01 T00711094  RH  030%=      5-min Rain = 0
KFL1 161243Z 05007KT 07/M10 A3013 RMK A01 T00701095  RH  030%=      5-min Rain = 0
KFL1 161244Z 06007KT 07/M09 A3013 RMK A01 T00711094  RH  030%=      5-min Rain = 0
KFL1 161245Z 05006KT 07/M10 A3013 RMK A01 T00691097  RH  030%=      5-min Rain = 0
KFL1 161246Z 05006KT 07/M10 A3013 RMK A01 T00691096  RH  030%=      5-min Rain = 0
KFL1 161247Z 06005KT 07/M10 A3013 RMK A01 T00701096  RH  030%=      5-min Rain = 0
KFL1 161248Z 06005KT 07/M10 A3013 RMK A01 T00701096  RH  030%=      5-min Rain = 0
KFL1 161249Z 06005KT 07/M10 A3013 RMK A01 T00701096  RH  030%=      5-min Rain = 0
KFL1 161250Z 06006KT 07/M09 A3013 RMK A01 T00711094  RH  030%=      5-min Rain = 0
KFL1 161251Z 06007KT 07/M09 A3013 RMK A01 T00721090  RH  031%=      5-min Rain = 0
KFL1 161252Z 06006KT 07/M09 A3013 RMK A01 T00691092  RH  031%=      5-min Rain = 0
KFL1 161253Z 07005KT 07/M09 A3013 RMK A01 T00701089  RH  031%=      5-min Rain = 0
KFL1 161254Z 07005KT 07/M09 A3013 RMK A01 T00691089  RH  032%=      5-min Rain = 0
KFL1 161255Z 07006KT 07/M09 A3013 RMK A01 T00681085  RH  033%=      5-min Rain = 0
KFL1 161256Z 07005KT 07/M09 A3013 RMK A01 T00671086  RH  033%=      5-min Rain = 0
KFL1 161257Z 07006KT 07/M08 A3013 RMK A01 T00651081  RH  034%=      5-min Rain = 0
KFL1 161258Z 08006KT 07/M08 A3014 RMK A01 T00651082  RH  034%=      5-min Rain = 0
KFL1 161259Z 08006KT 06/M09 A3014 RMK A01 T00641085  RH  034%=      5-min Rain = 0
KFL1 161300Z 07005KT 06/M09 A3014 RMK A01 T00641087  RH  033%=      5-min Rain = 0
KFL1 161301Z 07005KT 06/M09 A3014 RMK A01 T00641088  RH  033%=      5-min Rain = 0
KFL1 161302Z 07006KT 06/M09 A3014 RMK A01 T00641088  RH  033%=      5-min Rain = 0
KFL1 161303Z 07005KT 07/M09 A3014 RMK A01 T00651086  RH  033%=      5-min Rain = 0
KFL1 161304Z 07005KT 07/M09 A3014 RMK A01 T00651087  RH  033%=      5-min Rain = 0
KFL1 161305Z 07006KT 06/M09 A3014 RMK A01 T00641093  RH  032%=      5-min Rain = 0
KFL1 161306Z 06006KT 07/M09 A3014 RMK A01 T00651091  RH  032%=      5-min Rain = 0
KFL1 161307Z 05007KT 07/M09 A3014 RMK A01 T00651088  RH  032%=      5-min Rain = 0
KFL1 161308Z 06005KT 07/M09 A3014 RMK A01 T00661090  RH  032%=      5-min Rain = 0
KFL1 161309Z 05006KT 07/M09 A3014 RMK A01 T00661092  RH  031%=      5-min Rain = 0
KFL1 161310Z 05007KT 07/M09 A3014 RMK A01 T00681091  RH  031%=      5-min Rain = 0
KFL1 161311Z 06007KT 07/M09 A3014 RMK A01 T00681092  RH  031%=      5-min Rain = 0
KFL1 161312Z 06006KT 07/M09 A3014 RMK A01 T00681093  RH  031%=      5-min Rain = 0
KFL1 161313Z 05008KT 07/M10 A3014 RMK A01 T00671095  RH  030%=      5-min Rain = 0
KFL1 161314Z 05007KT 07/M09 A3014 RMK A01 T00681093  RH  031%=      5-min Rain = 0
KFL1 161315Z 06006KT 07/M09 A3014 RMK A01 T00701091  RH  031%=      5-min Rain = 0
KFL1 161316Z 05007KT 07/M09 A3013 RMK A01 T00691092  RH  031%=      5-min Rain = 0
KFL1 161317Z 06008KT 07/M09 A3013 RMK A01 T00691092  RH  031%=      5-min Rain = 0
KFL1 161318Z 06007KT 07/M09 A3013 RMK A01 T00701091  RH  031%=      5-min Rain = 0
KFL1 161319Z 06009KT 07/M09 A3013 RMK A01 T00701091  RH  031%=      5-min Rain = 0
KFL1 161320Z 06008KT 07/M09 A3013 RMK A01 T00691091  RH  031%=      5-min Rain = 0
KFL1 161321Z 07008KT 07/M09 A3013 RMK A01 T00701087  RH  032%=      5-min Rain = 0
KFL1 161322Z 07006KT 07/M08 A3013 RMK A01 T00691084  RH  033%=      5-min Rain = 0
KFL1 161323Z 07007KT 07/M09 A3013 RMK A01 T00681085  RH  033%=      5-min Rain = 0
KFL1 161324Z 07008KT 07/M08 A3013 RMK A01 T00691083  RH  033%=      5-min Rain = 0
KFL1 161325Z 07006KT 07/M09 A3014 RMK A01 T00671089  RH  032%=      5-min Rain = 0
KFL1 161326Z 07007KT 07/M09 A3014 RMK A01 T00681089  RH  032%=      5-min Rain = 0
KFL1 161327Z 07007KT 07/M09 A3014 RMK A01 T00681092  RH  031%=      5-min Rain = 0
KFL1 161328Z 07007KT 07/M09 A3014 RMK A01 T00701089  RH  031%=      5-min Rain = 0
KFL1 161329Z 07007KT 07/M09 A3014 RMK A01 T00701087  RH  032%=      5-min Rain = 0
KFL1 161330Z 07007KT 07/M08 A3014 RMK A01 T00711084  RH  032%=      5-min Rain = 0
KFL1 161331Z 08006KT 07/M09 A3014 RMK A01 T00701086  RH  032%=      5-min Rain = 0
KFL1 161332Z 06005KT 07/M09 A3014 RMK A01 T00701087  RH  032%=      5-min Rain = 0
KFL1 161333Z 07006KT 07/M09 A3014 RMK A01 T00711086  RH  032%=      5-min Rain = 0
KFL1 161334Z 07007KT 07/M09 A3014 RMK A01 T00721086  RH  032%=      5-min Rain = 0
KFL1 161335Z 07007KT 07/M08 A3014 RMK A01 T00711084  RH  032%=      5-min Rain = 0
KFL1 161336Z 06006KT 07/M09 A3014 RMK A01 T00711085  RH  032%=      5-min Rain = 0
KFL1 161337Z 06007KT 07/M08 A3014 RMK A01 T00731082  RH  032%=      5-min Rain = 0
KFL1 161338Z 06009KT 07/M09 A3014 RMK A01 T00721089  RH  031%=      5-min Rain = 0
KFL1 161339Z 07006KT 07/M09 A3014 RMK A01 T00711088  RH  031%=      5-min Rain = 0
KFL1 161340Z 07007KT 07/M09 A3015 RMK A01 T00741086  RH  031%=      5-min Rain = 0
KFL1 161341Z 07006KT 07/M09 A3015 RMK A01 T00721089  RH  031%=      5-min Rain = 0
KFL1 161342Z 07006KT 07/M09 A3015 RMK A01 T00741086  RH  031%=      5-min Rain = 0
KFL1 161343Z 07006KT 07/M08 A3015 RMK A01 T00741081  RH  032%=      5-min Rain = 0
KFL1 161344Z 06007KT 07/M08 A3015 RMK A01 T00741078  RH  033%=      5-min Rain = 0
KFL1 161345Z 07007KT 07/M09 A3015 RMK A01 T00731085  RH  031%=      5-min Rain = 0
KFL1 161346Z 08006KT 08/M09 A3015 RMK A01 T00751085  RH  031%=      5-min Rain = 0
KFL1 161347Z 07006KT 08/M09 A3015 RMK A01 T00751089  RH  030%=      5-min Rain = 0
KFL1 161348Z 08006KT 08/M09 A3015 RMK A01 T00771089  RH  030%=      5-min Rain = 0
KFL1 161349Z 08008KT 08/M09 A3015 RMK A01 T00781092  RH  029%=      5-min Rain = 0
KFL1 161350Z 08008KT 08/M09 A3015 RMK A01 T00791086  RH  030%=      5-min Rain = 0
KFL1 161351Z 08007KT 08/M08 A3016 RMK A01 T00801080  RH  031%=      5-min Rain = 0
KFL1 161352Z 08008KT 08/M09 A3016 RMK A01 T00771086  RH  030%=      5-min Rain = 0
KFL1 161353Z 08006KT 08/M08 A3016 RMK A01 T00761084  RH  031%=      5-min Rain = 0
KFL1 161354Z 09006KT 08/M09 A3016 RMK A01 T00781087  RH  030%=      5-min Rain = 0
KFL1 161355Z 09006KT 08/M09 A3016 RMK A01 T00771088  RH  030%=      5-min Rain = 0
KFL1 161356Z 08008KT 08/M09 A3016 RMK A01 T00781093  RH  029%=      5-min Rain = 0
KFL1 161357Z 08006KT 08/M09 A3016 RMK A01 T00771092  RH  029%=      5-min Rain = 0
KFL1 161358Z 09006KT 08/M09 A3016 RMK A01 T00781087  RH  030%=      5-min Rain = 0
KFL1 161359Z 08007KT 08/M09 A3016 RMK A01 T00771089  RH  030%=      5-min Rain = 0
KFL1 161400Z 08008KT 08/M09 A3016 RMK A01 T00771090  RH  030%=      5-min Rain = 0
KFL1 161401Z 09006KT 08/M09 A3016 RMK A01 T00751090  RH  030%=      5-min Rain = 0
KFL1 161402Z 08006KT 08/M09 A3016 RMK A01 T00771092  RH  029%=      5-min Rain = 0
KFL1 161403Z 08005KT 08/M09 A3016 RMK A01 T00761089  RH  030%=      5-min Rain = 0
KFL1 161404Z 08005KT 08/M09 A3016 RMK A01 T00761093  RH  029%=      5-min Rain = 0
KFL1 161405Z 07007KT 08/M09 A3016 RMK A01 T00771092  RH  029%=      5-min Rain = 0
KFL1 161406Z 08007KT 08/M09 A3016 RMK A01 T00761093  RH  029%=      5-min Rain = 0
KFL1 161407Z 08008KT 08/M09 A3016 RMK A01 T00751091  RH  030%=      5-min Rain = 0
KFL1 161408Z 07007KT 08/M09 A3016 RMK A01 T00761091  RH  029%=      5-min Rain = 0
KFL1 161409Z 08008KT 08/M09 A3016 RMK A01 T00751091  RH  030%=      5-min Rain = 0
KFL1 161410Z 07007KT 08/M09 A3016 RMK A01 T00751089  RH  030%=      5-min Rain = 0
KFL1 161411Z 08006KT 07/M09 A3016 RMK A01 T00741087  RH  031%=      5-min Rain = 0
KFL1 161412Z 07006KT 07/M09 A3016 RMK A01 T00741086  RH  031%=      5-min Rain = 0
KFL1 161413Z 07006KT 08/M08 A3016 RMK A01 T00751082  RH  032%=      5-min Rain = 0
KFL1 161414Z 07005KT 08/M08 A3016 RMK A01 T00781083  RH  031%=      5-min Rain = 0
KFL1 161415Z 07005KT 09/M08 A3016 RMK A01 T00851080  RH  030%=      5-min Rain = 0
KFL1 161416Z 07005KT 09/M09 A3017 RMK A01 T00851086  RH  029%=      5-min Rain = 0
KFL1 161417Z 07006KT 09/M09 A3017 RMK A01 T00871089  RH  028%=      5-min Rain = 0
KFL1 161418Z 08006KT 09/M08 A3017 RMK A01 T00881084  RH  029%=      5-min Rain = 0
KFL1 161419Z 08005KT 09/M08 A3017 RMK A01 T00871084  RH  029%=      5-min Rain = 0
KFL1 161420Z 07005KT 09/M08 A3017 RMK A01 T00871083  RH  029%=      5-min Rain = 0
KFL1 161421Z 07004KT 09/M08 A3017 RMK A01 T00851082  RH  030%=      5-min Rain = 0
KFL1 161422Z 07005KT 09/M08 A3017 RMK A01 T00851082  RH  030%=      5-min Rain = 0
KFL1 161423Z 07006KT 08/M08 A3017 RMK A01 T00841081  RH  030%=      5-min Rain = 0
KFL1 161424Z 07006KT 08/M09 A3017 RMK A01 T00831085  RH  030%=      5-min Rain = 0
KFL1 161425Z 07005KT 08/M08 A3017 RMK A01 T00841081  RH  030%=      5-min Rain = 0
KFL1 161426Z 07006KT 08/M08 A3017 RMK A01 T00831083  RH  030%=      5-min Rain = 0
KFL1 161427Z 07008KT 08/M09 A3017 RMK A01 T00831085  RH  029%=      5-min Rain = 0
KFL1 161428Z 07007KT 08/M09 A3017 RMK A01 T00841085  RH  029%=      5-min Rain = 0
KFL1 161429Z 08007KT 09/M09 A3017 RMK A01 T00851089  RH  028%=      5-min Rain = 0
KFL1 161430Z 07007KT 09/M10 A3017 RMK A01 T00851095  RH  027%=      5-min Rain = 0
KFL1 161431Z 08008KT 09/M09 A3017 RMK A01 T00861090  RH  028%=      5-min Rain = 0
KFL1 161432Z 08008KT 09/M09 A3017 RMK A01 T00891090  RH  027%=      5-min Rain = 0
KFL1 161433Z 07006KT 09/M09 A3017 RMK A01 T00881091  RH  027%=      5-min Rain = 0
KFL1 161434Z 08007KT 09/M09 A3017 RMK A01 T00891094  RH  026%=      5-min Rain = 0
KFL1 161435Z 07007KT 09/M09 A3017 RMK A01 T00921085  RH  028%=      5-min Rain = 0
KFL1 161436Z 08005KT 10/M07 A3017 RMK A01 T00951073  RH  030%=      5-min Rain = 0
KFL1 161437Z 08006KT 10/M07 A3017 RMK A01 T00971071  RH  030%=      5-min Rain = 0
KFL1 161438Z 08009KT 10/M08 A3017 RMK A01 T00971084  RH  027%=      5-min Rain = 0
KFL1 161439Z 08009KT 10/M08 A3017 RMK A01 T00961080  RH  028%=      5-min Rain = 0
KFL1 161440Z 07008KT 10/M08 A3017 RMK A01 T00961078  RH  028%=      5-min Rain = 0
KFL1 161441Z 07007KT 09/M09 A3017 RMK A01 T00931090  RH  027%=      5-min Rain = 0
KFL1 161442Z 08007KT 09/M08 A3017 RMK A01 T00931082  RH  028%=      5-min Rain = 0
KFL1 161443Z 08007KT 09/M08 A3017 RMK A01 T00931076  RH  030%=      5-min Rain = 0
KFL1 161444Z 08006KT 09/M09 A3017 RMK A01 T00931090  RH  026%=      5-min Rain = 0
KFL1 161445Z 09009KT 09/M09 A3017 RMK A01 T00911092  RH  026%=      5-min Rain = 0
KFL1 161446Z 08008G13KT 09/M09 A3017 RMK A01 T00911086  RH  028%=      5-min Rain = 0
KFL1 161447Z 08011KT 09/M09 A3017 RMK A01 T00921089  RH  027%=      5-min Rain = 0
KFL1 161448Z 09011KT 09/M09 A3016 RMK A01 T00901090  RH  027%=      5-min Rain = 0
KFL1 161449Z 09007KT 09/M09 A3016 RMK A01 T00901094  RH  026%=      5-min Rain = 0
KFL1 161450Z 09009KT 09/M10 A3016 RMK A01 T00891098  RH  025%=      5-min Rain = 0
KFL1 161451Z 07008KT 09/M09 A3016 RMK A01 T00901092  RH  027%=      5-min Rain = 0
KFL1 161452Z 09009KT 09/M09 A3016 RMK A01 T00911089  RH  027%=      5-min Rain = 0
KFL1 161453Z 09010KT 09/M09 A3016 RMK A01 T00911090  RH  027%=      5-min Rain = 0
KFL1 161454Z 08006KT 09/M09 A3016 RMK A01 T00931094  RH  026%=      5-min Rain = 0
KFL1 161455Z 09006KT 10/M09 A3016 RMK A01 T00961094  RH  025%=      5-min Rain = 0
KFL1 161456Z 08005KT 10/M09 A3017 RMK A01 T00951088  RH  026%=      5-min Rain = 0
KFL1 161457Z 08007KT 09/M10 A3017 RMK A01 T00941096  RH  025%=      5-min Rain = 0
KFL1 161458Z 07007KT 09/M10 A3017 RMK A01 T00931098  RH  025%=      5-min Rain = 0
KFL1 161459Z 08008KT 09/M10 A3017 RMK A01 T00931100  RH  024%=      5-min Rain = 0
KFL1 161500Z 07006KT 09/M10 A3017 RMK A01 T00911101  RH  025%=      5-min Rain = 0
KFL1 161501Z 08007KT 09/M09 A3017 RMK A01 T00911093  RH  026%=      5-min Rain = 0
KFL1 161502Z 10008G13KT 09/M10 A3018 RMK A01 T00921098  RH  025%=      5-min Rain = 0
KFL1 161503Z 08007KT 09/M10 A3018 RMK A01 T00911100  RH  025%=      5-min Rain = 0
KFL1 161504Z 09007KT 09/M09 A3018 RMK A01 T00921093  RH  026%=      5-min Rain = 0
KFL1 161505Z 10008KT 09/M09 A3018 RMK A01 T00921092  RH  026%=      5-min Rain = 0
KFL1 161506Z 11008KT 09/M10 A3018 RMK A01 T00921098  RH  025%=      5-min Rain = 0
KFL1 161507Z 09010KT 09/M10 A3017 RMK A01 T00921098  RH  025%=      5-min Rain = 0
KFL1 161508Z 09009KT 09/M09 A3017 RMK A01 T00911091  RH  027%=      5-min Rain = 0
KFL1 161509Z 09008KT 09/M09 A3017 RMK A01 T00921094  RH  026%=      5-min Rain = 0
KFL1 161510Z 09006KT 09/M09 A3017 RMK A01 T00931093  RH  026%=      5-min Rain = 0
KFL1 161511Z 10006KT 09/M10 A3017 RMK A01 T00931098  RH  025%=      5-min Rain = 0
KFL1 161512Z 09006KT 09/M10 A3018 RMK A01 T00931099  RH  025%=      5-min Rain = 0
KFL1 161513Z 09005KT 09/M10 A3018 RMK A01 T00931100  RH  024%=      5-min Rain = 0
KFL1 161514Z 09004KT 09/M09 A3018 RMK A01 T00941093  RH  026%=      5-min Rain = 0
KFL1 161515Z 08005KT 10/M09 A3018 RMK A01 T00951090  RH  026%=      5-min Rain = 0
KFL1 161516Z 09007KT 10/M10 A3018 RMK A01 T00961095  RH  025%=      5-min Rain = 0
KFL1 161517Z 09006KT 10/M09 A3018 RMK A01 T00971085  RH  027%=      5-min Rain = 0
KFL1 161518Z 08006KT 10/M09 A3018 RMK A01 T01001088  RH  026%=      5-min Rain = 0
KFL1 161519Z 08005KT 10/M09 A3018 RMK A01 T01011090  RH  025%=      5-min Rain = 0
KFL1 161520Z 09004KT 10/M09 A3018 RMK A01 T01011094  RH  024%=      5-min Rain = 0
KFL1 161521Z 07005KT 10/M09 A3018 RMK A01 T01021089  RH  025%=      5-min Rain = 0
KFL1 161522Z 07004KT 10/M09 A3018 RMK A01 T01011089  RH  025%=      5-min Rain = 0
KFL1 161523Z 07006KT 10/M09 A3018 RMK A01 T01011085  RH  026%=      5-min Rain = 0
KFL1 161524Z 07008KT 10/M09 A3018 RMK A01 T01011089  RH  025%=      5-min Rain = 0
KFL1 161525Z 06007KT 10/M09 A3018 RMK A01 T00991093  RH  025%=      5-min Rain = 0
KFL1 161526Z 06006KT 10/M10 A3018 RMK A01 T00991095  RH  025%=      5-min Rain = 0
KFL1 161527Z 08006KT 10/M09 A3018 RMK A01 T00981094  RH  025%=      5-min Rain = 0
KFL1 161528Z 07005KT 10/M09 A3019 RMK A01 T00981094  RH  025%=      5-min Rain = 0
KFL1 161529Z 07005KT 10/M10 A3019 RMK A01 T00971096  RH  025%=      5-min Rain = 0
KFL1 161530Z 07005KT 10/M09 A3019 RMK A01 T00981094  RH  025%=      5-min Rain = 0
KFL1 161531Z 08003KT 10/M10 A3019 RMK A01 T00981100  RH  024%=      5-min Rain = 0
KFL1 161532Z 08004KT 10/M10 A3019 RMK A01 T00991095  RH  024%=      5-min Rain = 0
KFL1 161533Z 07003KT 10/M10 A3019 RMK A01 T00981099  RH  024%=      5-min Rain = 0
KFL1 161534Z 06001KT 10/M10 A3019 RMK A01 T00971096  RH  025%=      5-min Rain = 0
KFL1 161535Z 08003KT 10/M09 A3019 RMK A01 T00991088  RH  026%=      5-min Rain = 0
KFL1 161536Z 08004KT 10/M08 A3019 RMK A01 T00981084  RH  027%=      5-min Rain = 0
KFL1 161537Z 08005KT 10/M09 A3019 RMK A01 T01001087  RH  026%=      5-min Rain = 0
KFL1 161538Z 08005KT 10/M08 A3019 RMK A01 T00991082  RH  027%=      5-min Rain = 0
KFL1 161539Z 07005KT 10/M08 A3019 RMK A01 T00981084  RH  027%=      5-min Rain = 0
KFL1 161540Z 07004KT 10/M09 A3019 RMK A01 T00971089  RH  026%=      5-min Rain = 0
KFL1 161541Z 06004KT 10/M10 A3019 RMK A01 T00951098  RH  025%=      5-min Rain = 0
KFL1 161542Z 07005KT 10/M10 A3019 RMK A01 T00951100  RH  024%=      5-min Rain = 0
KFL1 161543Z 06003KT 10/M09 A3019 RMK A01 T00951094  RH  025%=      5-min Rain = 0
KFL1 161544Z 07003KT 10/M09 A3019 RMK A01 T00961087  RH  027%=      5-min Rain = 0
KFL1 161545Z 07004KT 10/M09 A3019 RMK A01 T00961088  RH  026%=      5-min Rain = 0
KFL1 161546Z 07006KT 10/M09 A3019 RMK A01 T00971085  RH  027%=      5-min Rain = 0
KFL1 161547Z 08008KT 10/M08 A3018 RMK A01 T00971080  RH  028%=      5-min Rain = 0
KFL1 161548Z 09008KT 10/M08 A3018 RMK A01 T00971084  RH  027%=      5-min Rain = 0
KFL1 161549Z 08009KT 10/M09 A3018 RMK A01 T00961087  RH  027%=      5-min Rain = 0
KFL1 161550Z 09008KT 10/M09 A3018 RMK A01 T00971085  RH  027%=      5-min Rain = 0
KFL1 161551Z 09007KT 10/M08 A3018 RMK A01 T00971081  RH  028%=      5-min Rain = 0
KFL1 161552Z 10007KT 10/M08 A3018 RMK A01 T00961082  RH  028%=      5-min Rain = 0
KFL1 161553Z 09005KT 10/M08 A3018 RMK A01 T00961083  RH  027%=      5-min Rain = 0
KFL1 161554Z 08007KT 10/M09 A3018 RMK A01 T00961086  RH  027%=      5-min Rain = 0
KFL1 161555Z 09007KT 10/M09 A3017 RMK A01 T00961088  RH  026%=      5-min Rain = 0
KFL1 161556Z 08007KT 10/M09 A3018 RMK A01 T00961088  RH  026%=      5-min Rain = 0
KFL1 161557Z 09006KT 10/M09 A3018 RMK A01 T00961091  RH  026%=      5-min Rain = 0
KFL1 161558Z 09004KT 10/M09 A3018 RMK A01 T00981091  RH  025%=      5-min Rain = 0
KFL1 161559Z 09004KT 10/M09 A3017 RMK A01 T00981089  RH  026%=      5-min Rain = 0
KFL1 161600Z 08007KT 10/M09 A3017 RMK A01 T00971089  RH  026%=      5-min Rain = 0
KFL1 161601Z 08008KT 10/M08 A3017 RMK A01 T00981082  RH  027%=      5-min Rain = 0
KFL1 161602Z 07006KT 10/M08 A3017 RMK A01 T01001077  RH  028%=      5-min Rain = 0
KFL1 161603Z 09005KT 10/M08 A3017 RMK A01 T01021079  RH  027%=      5-min Rain = 0
KFL1 161604Z 08004KT 10/M09 A3017 RMK A01 T01041089  RH  025%=      5-min Rain = 0
KFL1 161605Z 09004KT 10/M09 A3017 RMK A01 T01031087  RH  025%=      5-min Rain = 0
KFL1 161606Z 09006KT 10/M09 A3017 RMK A01 T01041091  RH  024%=      5-min Rain = 0
KFL1 161607Z 10006KT 10/M09 A3017 RMK A01 T01031089  RH  025%=      5-min Rain = 0
KFL1 161608Z 08006KT 10/M09 A3017 RMK A01 T01031090  RH  025%=      5-min Rain = 0
KFL1 161609Z 08005G10KT 10/M08 A3017 RMK A01 T01031081  RH  027%=      5-min Rain = 0
KFL1 161610Z 08008G13KT 10/M08 A3017 RMK A01 T01041076  RH  027%=      5-min Rain = 0
KFL1 161611Z 07007KT 11/M08 A3017 RMK A01 T01051081  RH  026%=      5-min Rain = 0
KFL1 161612Z 05005KT 11/M08 A3017 RMK A01 T01061082  RH  026%=      5-min Rain = 0
KFL1 161613Z 06008KT 11/M08 A3017 RMK A01 T01051081  RH  026%=      5-min Rain = 0
KFL1 161614Z 06010KT 10/M09 A3017 RMK A01 T01041085  RH  026%=      5-min Rain = 0
KFL1 161615Z 06009KT 10/M08 A3017 RMK A01 T01041083  RH  026%=      5-min Rain = 0
KFL1 161616Z 06007KT 10/M08 A3016 RMK A01 T01041080  RH  027%=      5-min Rain = 0
KFL1 161617Z 07008G13KT 11/M08 A3016 RMK A01 T01061075  RH  027%=      5-min Rain = 0
KFL1 161618Z 06006KT 11/M08 A3016 RMK A01 T01071079  RH  026%=      5-min Rain = 0
KFL1 161619Z 07006KT 11/M08 A3016 RMK A01 T01081081  RH  026%=      5-min Rain = 0
KFL1 161620Z 07008KT 11/M08 A3016 RMK A01 T01101082  RH  025%=      5-min Rain = 0
KFL1 161621Z 08007KT 11/M08 A3016 RMK A01 T01081081  RH  026%=      5-min Rain = 0
KFL1 161622Z 06009KT 11/M08 A3016 RMK A01 T01091083  RH  025%=      5-min Rain = 0
KFL1 161623Z 07007KT 11/M08 A3016 RMK A01 T01121082  RH  025%=      5-min Rain = 0
KFL1 161624Z 07007G14KT 11/M09 A3016 RMK A01 T01121085  RH  024%=      5-min Rain = 0
KFL1 161625Z 07012KT 11/M09 A3016 RMK A01 T01131090  RH  023%=      5-min Rain = 0
KFL1 161626Z 07011KT 11/M09 A3016 RMK A01 T01131091  RH  023%=      5-min Rain = 0
KFL1 161627Z 07008KT 11/M09 A3016 RMK A01 T01131090  RH  023%=      5-min Rain = 0
KFL1 161628Z 08007G12KT 11/M08 A3016 RMK A01 T01141082  RH  024%=      5-min Rain = 0
KFL1 161629Z 08010KT 12/M08 A3016 RMK A01 T01191080  RH  024%=      5-min Rain = 0
KFL1 161630Z 07009KT 12/M08 A3016 RMK A01 T01241079  RH  023%=      5-min Rain = 0
KFL1 161631Z 06008KT 12/M09 A3016 RMK A01 T01231088  RH  022%=      5-min Rain = 0
KFL1 161632Z 07009KT 12/M09 A3016 RMK A01 T01231091  RH  022%=      5-min Rain = 0
KFL1 161633Z 06007KT 12/M09 A3016 RMK A01 T01221094  RH  021%=      5-min Rain = 0
KFL1 161634Z 07008KT 12/M08 A3016 RMK A01 T01231081  RH  023%=      5-min Rain = 0
KFL1 161635Z 07009KT 13/M08 A3016 RMK A01 T01281079  RH  023%=      5-min Rain = 0
KFL1 161636Z 08007KT 14/M06 A3016 RMK A01 T01361064  RH  024%=      5-min Rain = 0
KFL1 161637Z 07004KT 14/M07 A3017 RMK A01 T01391074  RH  022%=      5-min Rain = 0
KFL1 161638Z 08006KT 14/M09 A3017 RMK A01 T01381091  RH  019%=      5-min Rain = 0
KFL1 161639Z 09008KT 13/M10 A3017 RMK A01 T01341095  RH  019%=      5-min Rain = 0
KFL1 161640Z 08011KT 13/M09 A3017 RMK A01 T01321087  RH  021%=      5-min Rain = 0
KFL1 161641Z 09009KT 13/M08 A3017 RMK A01 T01331079  RH  022%=      5-min Rain = 0
KFL1 161642Z 10008KT 14/M08 A3017 RMK A01 T01351081  RH  022%=      5-min Rain = 0
KFL1 161643Z 10006KT 14/M08 A3017 RMK A01 T01361084  RH  021%=      5-min Rain = 0
KFL1 161644Z 09006KT 14/M09 A3017 RMK A01 T01361092  RH  020%=      5-min Rain = 0
KFL1 161645Z 11006KT 14/M09 A3017 RMK A01 T01361089  RH  020%=      5-min Rain = 0
KFL1 161646Z 10006KT 13/M10 A3017 RMK A01 T01321097  RH  019%=      5-min Rain = 0
KFL1 161647Z 10007KT 13/M10 A3017 RMK A01 T01301095  RH  020%=      5-min Rain = 0
KFL1 161648Z 09007KT 13/M09 A3017 RMK A01 T01301092  RH  020%=      5-min Rain = 0
KFL1 161649Z 09006KT 13/M09 A3017 RMK A01 T01321088  RH  021%=      5-min Rain = 0
KFL1 161650Z 09007KT 13/M09 A3017 RMK A01 T01341086  RH  021%=      5-min Rain = 0
KFL1 161651Z 11008KT 13/M10 A3017 RMK A01 T01341096  RH  019%=      5-min Rain = 0
KFL1 161652Z 11008KT 13/M10 A3017 RMK A01 T01331096  RH  019%=      5-min Rain = 0
KFL1 161653Z 11007KT 13/M10 A3017 RMK A01 T01301095  RH  020%=      5-min Rain = 0
KFL1 161654Z 10006KT 13/M09 A3017 RMK A01 T01291092  RH  021%=      5-min Rain = 0
KFL1 161655Z 09004KT 13/M09 A3017 RMK A01 T01311090  RH  021%=      5-min Rain = 0
KFL1 161656Z 10005KT 13/M09 A3017 RMK A01 T01331090  RH  020%=      5-min Rain = 0
KFL1 161657Z 09007KT 13/M09 A3017 RMK A01 T01321089  RH  021%=      5-min Rain = 0
KFL1 161658Z 10006KT 14/M08 A3017 RMK A01 T01351081  RH  022%=      5-min Rain = 0
KFL1 161659Z 11007KT 14/M08 A3017 RMK A01 T01371082  RH  021%=      5-min Rain = 0
KFL1 161700Z 10008KT 14/M08 A3017 RMK A01 T01351079  RH  022%=      5-min Rain = 0
KFL1 161701Z 09006KT 14/M09 A3017 RMK A01 T01351085  RH  021%=      5-min Rain = 0
KFL1 161702Z 11004KT 14/M08 A3017 RMK A01 T01351076  RH  022%=      5-min Rain = 0
KFL1 161703Z 10006KT 14/M08 A3016 RMK A01 T01371080  RH  022%=      5-min Rain = 0
KFL1 161704Z 10007KT 14/M08 A3016 RMK A01 T01391077  RH  022%=      5-min Rain = 0
KFL1 161705Z 11006KT 14/M07 A3016 RMK A01 T01401074  RH  022%=      5-min Rain = 0
KFL1 161706Z 12007KT 14/M07 A3016 RMK A01 T01421072  RH  022%=      5-min Rain = 0
KFL1 161707Z 12006KT 14/M08 A3016 RMK A01 T01401080  RH  021%=      5-min Rain = 0
KFL1 161708Z 11005KT 14/M08 A3016 RMK A01 T01401081  RH  021%=      5-min Rain = 0
KFL1 161709Z 13004KT 14/M08 A3016 RMK A01 T01391083  RH  021%=      5-min Rain = 0
KFL1 161710Z 11006KT 14/M08 A3016 RMK A01 T01371082  RH  021%=      5-min Rain = 0
KFL1 161711Z 11009KT 14/M08 A3016 RMK A01 T01381075  RH  022%=      5-min Rain = 0
KFL1 161712Z 12009KT 14/M07 A3016 RMK A01 T01401069  RH  023%=      5-min Rain = 0
KFL1 161713Z 11009KT 14/M08 A3016 RMK A01 T01411077  RH  021%=      5-min Rain = 0
KFL1 161714Z 11011KT 14/M08 A3016 RMK A01 T01381081  RH  021%=      5-min Rain = 0
KFL1 161715Z 12010KT 14/M08 A3016 RMK A01 T01371084  RH  021%=      5-min Rain = 0
KFL1 161716Z 12008KT 14/M09 A3016 RMK A01 T01351088  RH  020%=      5-min Rain = 0
KFL1 161717Z 12009KT 13/M10 A3016 RMK A01 T01331096  RH  019%=      5-min Rain = 0
KFL1 161718Z 12008KT 13/M09 A3016 RMK A01 T01311092  RH  020%=      5-min Rain = 0
KFL1 161719Z 11009KT 13/M09 A3016 RMK A01 T01291094  RH  020%=      5-min Rain = 0
KFL1 161720Z 11008KT 13/M10 A3016 RMK A01 T01281097  RH  020%=      5-min Rain = 0
KFL1 161721Z 11009KT 13/M09 A3016 RMK A01 T01281093  RH  021%=      5-min Rain = 0
KFL1 161722Z 12009KT 13/M10 A3016 RMK A01 T01271095  RH  020%=      5-min Rain = 0
KFL1 161723Z 12008KT 13/M10 A3016 RMK A01 T01271097  RH  020%=      5-min Rain = 0
KFL1 161724Z 11009KT 13/M10 A3016 RMK A01 T01281099  RH  020%=      5-min Rain = 0
KFL1 161725Z 12008KT 13/M10 A3016 RMK A01 T01251101  RH  020%=      5-min Rain = 0
KFL1 161726Z 12008KT 12/M10 A3016 RMK A01 T01241098  RH  020%=      5-min Rain = 0
KFL1 161727Z 11007KT 13/M10 A3016 RMK A01 T01251098  RH  020%=      5-min Rain = 0
KFL1 161728Z 12009KT 13/M09 A3016 RMK A01 T01271086  RH  022%=      5-min Rain = 0
KFL1 161729Z 12009KT 13/M10 A3016 RMK A01 T01281097  RH  020%=      5-min Rain = 0
KFL1 161730Z 12008KT 13/M10 A3016 RMK A01 T01271098  RH  020%=      5-min Rain = 0
KFL1 161731Z 12009KT 13/M09 A3016 RMK A01 T01271094  RH  020%=      5-min Rain = 0
KFL1 161732Z 12008KT 13/M09 A3016 RMK A01 T01261088  RH  022%=      5-min Rain = 0
KFL1 161733Z 11007KT 13/M09 A3016 RMK A01 T01281089  RH  021%=      5-min Rain = 0
KFL1 161734Z 12008KT 13/M09 A3016 RMK A01 T01301090  RH  021%=      5-min Rain = 0
KFL1 161735Z 11008KT 13/M09 A3016 RMK A01 T01311092  RH  020%=      5-min Rain = 0
KFL1 161736Z 11008KT 13/M09 A3016 RMK A01 T01311092  RH  020%=      5-min Rain = 0
KFL1 161737Z 11011KT 13/M09 A3016 RMK A01 T01291089  RH  021%=      5-min Rain = 0
KFL1 161738Z 11010KT 13/M10 A3016 RMK A01 T01281101  RH  019%=      5-min Rain = 0
KFL1 161739Z 10007KT 13/M11 A3016 RMK A01 T01261105  RH  019%=      5-min Rain = 0
KFL1 161740Z 11009KT 13/M10 A3016 RMK A01 T01281098  RH  020%=      5-min Rain = 0
KFL1 161741Z 11009KT 13/M09 A3016 RMK A01 T01291094  RH  020%=      5-min Rain = 0
KFL1 161742Z 11010KT 13/M09 A3015 RMK A01 T01331089  RH  020%=      5-min Rain = 0
KFL1 161743Z 10011KT 14/M09 A3015 RMK A01 T01371090  RH  020%=      5-min Rain = 0
KFL1 161744Z 09011KT 14/M08 A3015 RMK A01 T01401078  RH  021%=      5-min Rain = 0
KFL1 161745Z 09012KT 14/M09 A3015 RMK A01 T01421089  RH  019%=      5-min Rain = 0
KFL1 161746Z 10013KT 14/M09 A3015 RMK A01 T01421088  RH  019%=      5-min Rain = 0
KFL1 161747Z 10009KT 14/M09 A3015 RMK A01 T01391093  RH  019%=      5-min Rain = 0
KFL1 161748Z 10008G13KT 14/M09 A3015 RMK A01 T01381087  RH  020%=      5-min Rain = 0
KFL1 161749Z 10009KT 14/M09 A3015 RMK A01 T01391090  RH  020%=      5-min Rain = 0
KFL1 161750Z 10009KT 14/M09 A3015 RMK A01 T01401088  RH  020%=      5-min Rain = 0
KFL1 161751Z 11006KT 14/M09 A3015 RMK A01 T01401092  RH  019%=      5-min Rain = 0
KFL1 161752Z 12007KT 14/M09 A3015 RMK A01 T01401094  RH  019%=      5-min Rain = 0
KFL1 161753Z 10007KT 14/M08 A3015 RMK A01 T01401079  RH  021%=      5-min Rain = 0
KFL1 161754Z 09009KT 14/M08 A3015 RMK A01 T01431079  RH  021%=      5-min Rain = 0
KFL1 161755Z 08010KT 15/M08 A3015 RMK A01 T01451084  RH  020%=      5-min Rain = 0
KFL1 161756Z 08009KT 15/M08 A3015 RMK A01 T01451081  RH  020%=      5-min Rain = 0
KFL1 161757Z 10009KT 15/M08 A3015 RMK A01 T01461082  RH  020%=      5-min Rain = 0
KFL1 161758Z 09010KT 15/M09 A3015 RMK A01 T01451085  RH  020%=      5-min Rain = 0
KFL1 161759Z 10009KT 15/M08 A3015 RMK A01 T01461078  RH  021%=      5-min Rain = 0
KFL1 161800Z 10008KT 15/M09 A3015 RMK A01 T01451086  RH  019%=      5-min Rain = 0
KFL1 161801Z 10007KT 15/M07 A3015 RMK A01 T01461071  RH  022%=      5-min Rain = 0
KFL1 161802Z 10006KT 15/M09 A3015 RMK A01 T01461087  RH  019%=      5-min Rain = 0
KFL1 161803Z 11006KT 15/M08 A3015 RMK A01 T01461082  RH  020%=      5-min Rain = 0
KFL1 161804Z 10006KT 15/M08 A3015 RMK A01 T01471082  RH  020%=      5-min Rain = 0
KFL1 161805Z 09007KT 15/M09 A3015 RMK A01 T01471085  RH  019%=      5-min Rain = 0
KFL1 161806Z 08005KT 15/M08 A3015 RMK A01 T01511083  RH  019%=      5-min Rain = 0
KFL1 161807Z 07007KT 15/M08 A3015 RMK A01 T01531083  RH  019%=      5-min Rain = 0
KFL1 161808Z 09007KT 16/M07 A3015 RMK A01 T01561066  RH  021%=      5-min Rain = 0
KFL1 161809Z 12010KT 16/M09 A3015 RMK A01 T01561085  RH  018%=      5-min Rain = 0
KFL1 161810Z 11006KT 15/M10 A3015 RMK A01 T01501096  RH  017%=      5-min Rain = 0
KFL1 161811Z 12006KT 15/M09 A3015 RMK A01 T01481093  RH  018%=      5-min Rain = 0
KFL1 161812Z 12007KT 14/M09 A3015 RMK A01 T01441092  RH  019%=      5-min Rain = 0
KFL1 161813Z 12008KT 14/M10 A3015 RMK A01 T01431097  RH  018%=      5-min Rain = 0
KFL1 161814Z 10010KT 14/M09 A3015 RMK A01 T01431090  RH  019%=      5-min Rain = 0
KFL1 161815Z 12010KT 14/M09 A3015 RMK A01 T01421089  RH  019%=      5-min Rain = 0
KFL1 161816Z 12009KT 14/M10 A3015 RMK A01 T01411099  RH  018%=      5-min Rain = 0
KFL1 161817Z 13008KT 14/M10 A3015 RMK A01 T01411095  RH  019%=      5-min Rain = 0
KFL1 161818Z 14008KT 14/M10 A3015 RMK A01 T01411095  RH  018%=      5-min Rain = 0
KFL1 161819Z 14010KT 14/M10 A3016 RMK A01 T01401101  RH  018%=      5-min Rain = 0
KFL1 161820Z 14011KT 14/M10 A3016 RMK A01 T01381100  RH  018%=      5-min Rain = 0
KFL1 161821Z 13008KT 14/M10 A3016 RMK A01 T01361103  RH  018%=      5-min Rain = 0
KFL1 161822Z 13010KT 14/M10 A3015 RMK A01 T01361098  RH  019%=      5-min Rain = 0
KFL1 161823Z 13009KT 14/M10 A3015 RMK A01 T01371098  RH  019%=      5-min Rain = 0
KFL1 161824Z 13007KT 14/M10 A3015 RMK A01 T01351100  RH  018%=      5-min Rain = 0
KFL1 161825Z 12007KT 14/M09 A3014 RMK A01 T01361094  RH  019%=      5-min Rain = 0
KFL1 161826Z 10006KT 14/M09 A3014 RMK A01 T01401089  RH  020%=      5-min Rain = 0
KFL1 161827Z 10006KT 14/M10 A3014 RMK A01 T01391101  RH  018%=      5-min Rain = 0
KFL1 161828Z 12005KT 14/M09 A3014 RMK A01 T01391088  RH  020%=      5-min Rain = 0
KFL1 161829Z 12004KT 14/M09 A3014 RMK A01 T01391090  RH  020%=      5-min Rain = 0
KFL1 161830Z 12004KT 14/M10 A3014 RMK A01 T01401095  RH  019%=      5-min Rain = 0
KFL1 161831Z 13007KT 14/M10 A3014 RMK A01 T01401095  RH  019%=      5-min Rain = 0
KFL1 161832Z 12007KT 14/M10 A3014 RMK A01 T01401097  RH  018%=      5-min Rain = 0
KFL1 161833Z 11007KT 14/M10 A3014 RMK A01 T01361102  RH  018%=      5-min Rain = 0
KFL1 161834Z 11007KT 14/M10 A3014 RMK A01 T01351098  RH  019%=      5-min Rain = 0
KFL1 161835Z 12007KT 14/M09 A3014 RMK A01 T01361089  RH  020%=      5-min Rain = 0
KFL1 161836Z 10007KT 14/M10 A3014 RMK A01 T01351099  RH  019%=      5-min Rain = 0
KFL1 161837Z 13006KT 14/M10 A3014 RMK A01 T01351097  RH  019%=      5-min Rain = 0
KFL1 161838Z 13007KT 14/M10 A3014 RMK A01 T01351095  RH  019%=      5-min Rain = 0
KFL1 161839Z 12007KT 14/M10 A3014 RMK A01 T01391099  RH  018%=      5-min Rain = 0
KFL1 161840Z 12009KT 14/M10 A3015 RMK A01 T01361101  RH  018%=      5-min Rain = 0
KFL1 161841Z 11008KT 14/M11 A3015 RMK A01 T01361108  RH  017%=      5-min Rain = 0
KFL1 161842Z 11010KT 14/M10 A3015 RMK A01 T01361101  RH  018%=      5-min Rain = 0
KFL1 161843Z 12008KT 14/M10 A3015 RMK A01 T01381095  RH  019%=      5-min Rain = 0
KFL1 161844Z 13006KT 14/M10 A3015 RMK A01 T01411096  RH  018%=      5-min Rain = 0
KFL1 161845Z 12011KT 14/M10 A3015 RMK A01 T01421101  RH  018%=      5-min Rain = 0
KFL1 161846Z 13007KT 14/M11 A3015 RMK A01 T01411105  RH  017%=      5-min Rain = 0
KFL1 161847Z 14007KT 14/M11 A3015 RMK A01 T01401105  RH  017%=      5-min Rain = 0
KFL1 161848Z 14010KT 14/M10 A3015 RMK A01 T01391101  RH  018%=      5-min Rain = 0
KFL1 161849Z 14008KT 14/M10 A3015 RMK A01 T01391104  RH  018%=      5-min Rain = 0
KFL1 161850Z 14009KT 14/M11 A3015 RMK A01 T01371108  RH  017%=      5-min Rain = 0
KFL1 161851Z 13009KT 14/M10 A3015 RMK A01 T01371101  RH  018%=      5-min Rain = 0
KFL1 161852Z 13008KT 14/M10 A3015 RMK A01 T01381100  RH  018%=      5-min Rain = 0
KFL1 161853Z 15007KT 14/M10 A3015 RMK A01 T01381104  RH  018%=      5-min Rain = 0
KFL1 161854Z 16006KT 14/M11 A3015 RMK A01 T01391105  RH  017%=      5-min Rain = 0
KFL1 161855Z 14006KT 14/M11 A3015 RMK A01 T01371105  RH  018%=      5-min Rain = 0
KFL1 161856Z 13003KT 14/M10 A3015 RMK A01 T01391102  RH  018%=      5-min Rain = 0
KFL1 161857Z 18003KT 14/M10 A3015 RMK A01 T01401102  RH  018%=      5-min Rain = 0
KFL1 161858Z 15003KT 14/M10 A3015 RMK A01 T01411104  RH  017%=      5-min Rain = 0
KFL1 161859Z 13002KT 14/M11 A3014 RMK A01 T01411106  RH  017%=      5-min Rain = 0
KFL1 161900Z 13006KT 14/M09 A3014 RMK A01 T01441092  RH  019%=      5-min Rain = 0
KFL1 161901Z 15008KT 15/M09 A3014 RMK A01 T01461093  RH  018%=      5-min Rain = 0
KFL1 161902Z 15008KT 15/M10 A3014 RMK A01 T01471095  RH  018%=      5-min Rain = 0
KFL1 161903Z 15006KT 15/M10 A3014 RMK A01 T01461100  RH  017%=      5-min Rain = 0
KFL1 161904Z 13008KT 15/M10 A3014 RMK A01 T01471095  RH  018%=      5-min Rain = 0
KFL1 161905Z 11007KT 15/M10 A3014 RMK A01 T01461100  RH  017%=      5-min Rain = 0
KFL1 161906Z 12007KT 14/M10 A3014 RMK A01 T01441101  RH  017%=      5-min Rain = 0
KFL1 161907Z 14005KT 15/M10 A3014 RMK A01 T01451103  RH  017%=      5-min Rain = 0
KFL1 161908Z 13004KT 15/M10 A3014 RMK A01 T01461103  RH  017%=      5-min Rain = 0
KFL1 161909Z 13005KT 15/M10 A3015 RMK A01 T01471097  RH  018%=      5-min Rain = 0
KFL1 161910Z 13004KT 15/M10 A3015 RMK A01 T01481104  RH  017%=      5-min Rain = 0
KFL1 161911Z 12007KT 15/M09 A3015 RMK A01 T01521092  RH  018%=      5-min Rain = 0
KFL1 161912Z 13005KT 16/M10 A3015 RMK A01 T01551100  RH  016%=      5-min Rain = 0
KFL1 161913Z 12007KT 15/M10 A3014 RMK A01 T01541100  RH  016%=      5-min Rain = 0
KFL1 161914Z 16006KT 16/M09 A3014 RMK A01 T01561086  RH  018%=      5-min Rain = 0
KFL1 161915Z 15007KT 16/M09 A3014 RMK A01 T01621087  RH  017%=      5-min Rain = 0
KFL1 161916Z 16008KT 17/M09 A3014 RMK A01 T01671092  RH  016%=      5-min Rain = 0
KFL1 161917Z 17005KT 16/M11 A3014 RMK A01 T01631107  RH  015%=      5-min Rain = 0
KFL1 161918Z 12002KT 16/M11 A3014 RMK A01 T01621111  RH  014%=      5-min Rain = 0
KFL1 161919Z 12001KT 16/M11 A3014 RMK A01 T01621111  RH  014%=      5-min Rain = 0
KFL1 161920Z 14002KT 16/M11 A3014 RMK A01 T01601105  RH  015%=      5-min Rain = 0
KFL1 161921Z 12006KT 16/M10 A3014 RMK A01 T01641099  RH  016%=      5-min Rain = 0
KFL1 161922Z 13008KT 16/M10 A3014 RMK A01 T01631101  RH  015%=      5-min Rain = 0
KFL1 161923Z 13006KT 16/M11 A3014 RMK A01 T01581110  RH  015%=      5-min Rain = 0
KFL1 161924Z 14008G13KT 16/M10 A3014 RMK A01 T01591100  RH  016%=      5-min Rain = 0
KFL1 161925Z 15008G13KT 16/M10 A3014 RMK A01 T01581101  RH  016%=      5-min Rain = 0
KFL1 161926Z 15009G14KT 16/M09 A3014 RMK A01 T01601094  RH  016%=      5-min Rain = 0
KFL1 161927Z 19008KT 17/M09 A3014 RMK A01 T01661085  RH  017%=      5-min Rain = 0
KFL1 161928Z 20007KT 17/M10 A3014 RMK A01 T01691100  RH  015%=      5-min Rain = 0
KFL1 161929Z 19005KT 17/M11 A3014 RMK A01 T01681105  RH  014%=      5-min Rain = 0
KFL1 161930Z 17005KT 17/M10 A3014 RMK A01 T01681097  RH  015%=      5-min Rain = 0
KFL1 161931Z 16005KT 17/M08 A3014 RMK A01 T01731083  RH  017%=      5-min Rain = 0
KFL1 161932Z 18003KT 18/M10 A3014 RMK A01 T01761097  RH  015%=      5-min Rain = 0
KFL1 161933Z 15002KT 18/M09 A3013 RMK A01 T01771087  RH  016%=      5-min Rain = 0
KFL1 161934Z 14004KT 18/M10 A3013 RMK A01 T01801095  RH  014%=      5-min Rain = 0
KFL1 161935Z 11003KT 17/M11 A3013 RMK A01 T01701107  RH  014%=      5-min Rain = 0
KFL1 161936Z 12004KT 17/M09 A3013 RMK A01 T01681092  RH  016%=      5-min Rain = 0
KFL1 161937Z 15006KT 17/M10 A3013 RMK A01 T01711099  RH  015%=      5-min Rain = 0
KFL1 161938Z 14007KT 17/M11 A3013 RMK A01 T01671109  RH  014%=      5-min Rain = 0
KFL1 161939Z 14007KT 17/M11 A3013 RMK A01 T01671108  RH  014%=      5-min Rain = 0
KFL1 161940Z 14009KT 17/M11 A3013 RMK A01 T01661110  RH  014%=      5-min Rain = 0
KFL1 161941Z 17006KT 16/M11 A3013 RMK A01 T01641108  RH  015%=      5-min Rain = 0
KFL1 161942Z 17007KT 17/M11 A3013 RMK A01 T01661105  RH  015%=      5-min Rain = 0
KFL1 161943Z 15010KT 17/M09 A3013 RMK A01 T01741092  RH  015%=      5-min Rain = 0
KFL1 161944Z 16011KT 17/M10 A3013 RMK A01 T01741096  RH  015%=      5-min Rain = 0
KFL1 161945Z 16009KT 18/M10 A3013 RMK A01 T01751098  RH  015%=      5-min Rain = 0
KFL1 161946Z 16012KT 17/M10 A3013 RMK A01 T01731103  RH  014%=      5-min Rain = 0
KFL1 161947Z 17010KT 17/M11 A3013 RMK A01 T01711105  RH  014%=      5-min Rain = 0
KFL1 161948Z 20009KT 18/M11 A3013 RMK A01 T01751105  RH  014%=      5-min Rain = 0
KFL1 161949Z 22004KT 17/M12 A3013 RMK A01 T01711117  RH  013%=      5-min Rain = 0
KFL1 161950Z 23002KT 17/M12 A3013 RMK A01 T01701117  RH  013%=      5-min Rain = 0
KFL1 161951Z 25005KT 17/M12 A3013 RMK A01 T01681115  RH  013%=      5-min Rain = 0
KFL1 161952Z 26006KT 17/M11 A3013 RMK A01 T01711106  RH  014%=      5-min Rain = 0
KFL1 161953Z 25008KT 17/M11 A3012 RMK A01 T01701112  RH  014%=      5-min Rain = 0
KFL1 161954Z 27007KT 17/M11 A3012 RMK A01 T01701108  RH  014%=      5-min Rain = 0
KFL1 161955Z 27006KT 17/M12 A3012 RMK A01 T01671115  RH  013%=      5-min Rain = 0
KFL1 161956Z 26005KT 16/M12 A3012 RMK A01 T01641117  RH  013%=      5-min Rain = 0
KFL1 161957Z 26005KT 16/M12 A3012 RMK A01 T01611116  RH  014%=      5-min Rain = 0
KFL1 161958Z 22005G13KT 16/M12 A3012 RMK A01 T01601116  RH  014%=      5-min Rain = 0
KFL1 161959Z 22010KT 16/M11 A3012 RMK A01 T01601110  RH  015%=      5-min Rain = 0
KFL1 162000Z 20008G13KT 17/M11 A3012 RMK A01 T01651105  RH  015%=      5-min Rain = 0
KFL1 162001Z 20009KT 17/M11 A3012 RMK A01 T01671112  RH  014%=      5-min Rain = 0
KFL1 162002Z 18006G11KT 17/M12 A3012 RMK A01 T01651124  RH  013%=      5-min Rain = 0
KFL1 162003Z 18006KT 16/M12 A3012 RMK A01 T01641118  RH  013%=      5-min Rain = 0
KFL1 162004Z 22006KT 16/M12 A3012 RMK A01 T01631120  RH  013%=      5-min Rain = 0
KFL1 162005Z 21003KT 16/M13 A3012 RMK A01 T01641127  RH  012%=      5-min Rain = 0
KFL1 162006Z 16002KT 16/M14 A3011 RMK A01 T01591138  RH  012%=      5-min Rain = 0
KFL1 162007Z 15003KT 16/M13 A3011 RMK A01 T01581131  RH  012%=      5-min Rain = 0
KFL1 162008Z 16006KT 16/M11 A3011 RMK A01 T01611114  RH  014%=      5-min Rain = 0
KFL1 162009Z 15007KT 17/M11 A3011 RMK A01 T01651108  RH  014%=      5-min Rain = 0
KFL1 162010Z 14008KT 17/M12 A3011 RMK A01 T01651117  RH  013%=      5-min Rain = 0
KFL1 162011Z 15004KT 17/M12 A3011 RMK A01 T01671115  RH  013%=      5-min Rain = 0
KFL1 162012Z 18001KT 17/M12 A3011 RMK A01 T01671119  RH  013%=      5-min Rain = 0
KFL1 162013Z 18003KT 17/M12 A3011 RMK A01 T01701117  RH  013%=      5-min Rain = 0
KFL1 162014Z 15002KT 17/M12 A3011 RMK A01 T01691122  RH  013%=      5-min Rain = 0
KFL1 162015Z 18002KT 17/M12 A3011 RMK A01 T01671121  RH  013%=      5-min Rain = 0
KFL1 162016Z 16001KT 17/M12 A3011 RMK A01 T01661120  RH  013%=      5-min Rain = 0
KFL1 162017Z 13003KT 17/M11 A3011 RMK A01 T01661111  RH  014%=      5-min Rain = 0
KFL1 162018Z 14005KT 17/M13 A3011 RMK A01 T01651126  RH  012%=      5-min Rain = 0
KFL1 162019Z 16007KT 16/M13 A3011 RMK A01 T01631126  RH  013%=      5-min Rain = 0
KFL1 162020Z 19009KT 16/M12 A3011 RMK A01 T01631117  RH  014%=      5-min Rain = 0
KFL1 162021Z 15009KT 16/M12 A3011 RMK A01 T01641124  RH  013%=      5-min Rain = 0
KFL1 162022Z 14008KT 16/M11 A3011 RMK A01 T01641114  RH  014%=      5-min Rain = 0
KFL1 162023Z 17007KT 17/M12 A3011 RMK A01 T01661123  RH  013%=      5-min Rain = 0
KFL1 162024Z 19008KT 16/M13 A3011 RMK A01 T01621129  RH  012%=      5-min Rain = 0
KFL1 162025Z 17005KT 16/M13 A3011 RMK A01 T01611131  RH  012%=      5-min Rain = 0
KFL1 162026Z 19007KT 16/M12 A3011 RMK A01 T01611120  RH  013%=      5-min Rain = 0
KFL1 162027Z 22010KT 16/M13 A3011 RMK A01 T01631126  RH  013%=      5-min Rain = 0
KFL1 162028Z 21005KT 16/M14 A3011 RMK A01 T01641137  RH  011%=      5-min Rain = 0
KFL1 162029Z 19004KT 16/M14 A3011 RMK A01 T01621139  RH  011%=      5-min Rain = 0
KFL1 162030Z 18005KT 16/M14 A3011 RMK A01 T01601139  RH  012%=      5-min Rain = 0
KFL1 162031Z 20004KT 16/M14 A3011 RMK A01 T01601136  RH  012%=      5-min Rain = 0
KFL1 162032Z 21008KT 16/M13 A3011 RMK A01 T01611130  RH  012%=      5-min Rain = 0
KFL1 162033Z 21007KT 16/M13 A3011 RMK A01 T01631131  RH  012%=      5-min Rain = 0
KFL1 162034Z 21007KT 16/M14 A3011 RMK A01 T01591139  RH  012%=      5-min Rain = 0
KFL1 162035Z 19007KT 16/M14 A3011 RMK A01 T01591137  RH  012%=      5-min Rain = 0
KFL1 162036Z 17007KT 16/M14 A3011 RMK A01 T01581135  RH  012%=      5-min Rain = 0
KFL1 162037Z 16005KT 16/M14 A3011 RMK A01 T01571144  RH  011%=      5-min Rain = 0
KFL1 162038Z 16004KT 16/M14 A3011 RMK A01 T01571140  RH  012%=      5-min Rain = 0
KFL1 162039Z 20003KT 16/M14 A3011 RMK A01 T01561135  RH  012%=      5-min Rain = 0
KFL1 162040Z 20003KT 16/M13 A3011 RMK A01 T01581132  RH  012%=      5-min Rain = 0
KFL1 162041Z 21003KT 16/M13 A3011 RMK A01 T01611133  RH  012%=      5-min Rain = 0
KFL1 162042Z 22004KT 16/M14 A3011 RMK A01 T01601136  RH  012%=      5-min Rain = 0
KFL1 162043Z 24005KT 16/M14 A3011 RMK A01 T01611136  RH  012%=      5-min Rain = 0
KFL1 162044Z 23004KT 16/M14 A3011 RMK A01 T01621137  RH  012%=      5-min Rain = 0
KFL1 162045Z 26003KT 16/M14 A3011 RMK A01 T01601139  RH  012%=      5-min Rain = 0
KFL1 162046Z 23002KT 16/M14 A3011 RMK A01 T01611135  RH  012%=      5-min Rain = 0
KFL1 162047Z 17004KT 16/M13 A3011 RMK A01 T01631129  RH  012%=      5-min Rain = 0
KFL1 162048Z 16003KT 17/M14 A3011 RMK A01 T01661138  RH  011%=      5-min Rain = 0
KFL1 162049Z 15002KT 16/M15 A3011 RMK A01 T01611147  RH  011%=      5-min Rain = 0
KFL1 162050Z 21007KT 16/M14 A3011 RMK A01 T01601136  RH  012%=      5-min Rain = 0
KFL1 162051Z 22006KT 16/M14 A3011 RMK A01 T01601142  RH  011%=      5-min Rain = 0
KFL1 162052Z 21005KT 16/M14 A3011 RMK A01 T01611136  RH  012%=      5-min Rain = 0
KFL1 162053Z 19005KT 16/M13 A3011 RMK A01 T01631132  RH  012%=      5-min Rain = 0
KFL1 162054Z 19005KT 17/M13 A3011 RMK A01 T01651131  RH  012%=      5-min Rain = 0
KFL1 162055Z 20007KT 16/M14 A3011 RMK A01 T01641143  RH  011%=      5-min Rain = 0
KFL1 162056Z 19006KT 17/M14 A3011 RMK A01 T01651140  RH  011%=      5-min Rain = 0
KFL1 162057Z 23006KT 16/M14 A3011 RMK A01 T01631136  RH  012%=      5-min Rain = 0
KFL1 162058Z 23005KT 16/M14 A3011 RMK A01 T01601143  RH  011%=      5-min Rain = 0
KFL1 162059Z 23003KT 16/M15 A3011 RMK A01 T01591148  RH  011%=      5-min Rain = 0
KFL1 162100Z 21003KT 16/M15 A3011 RMK A01 T01581146  RH  011%=      5-min Rain = 0
KFL1 162101Z 15003KT 16/M13 A301 RMK A01 T01571130  RH  013%=      5-min Rain = 0
KFL1 162102Z 18004KT 16/M12 A3011 RMK A01 T01571121  RH  014%=      5-min Rain = 0
KFL1 162103Z 19006KT 16/M14 A301 RMK A01 T01591138  RH  012%=      5-min Rain = 0
KFL1 162104Z 22007KT 16/M14 A3011 RMK A01 T01601137  RH  012%=      5-min Rain = 0
KFL1 162105Z 23005KT 16/M15 A3011 RMK A01 T01571146  RH  011%=      5-min Rain = 0
KFL1 162106Z 24008KT 16/M14 A3011 RMK A01 T01561137  RH  012%=      5-min Rain = 0
KFL1 162107Z 20007KT 16/M13 A3011 RMK A01 T01561125  RH  013%=      5-min Rain = 0
KFL1 162108Z 24008KT 16/M12 A3011 RMK A01 T01571123  RH  013%=      5-min Rain = 0
KFL1 162109Z 24008KT 16/M13 A301 RMK A01 T01601132  RH  012%=      5-min Rain = 0
KFL1 162110Z 22006KT 16/M14 A301 RMK A01 T01561139  RH  012%=      5-min Rain = 0
KFL1 162111Z 20005KT 15/M15 A301 RMK A01 T01541149  RH  011%=      5-min Rain = 0
KFL1 162112Z 16004KT 15/M15 A301 RMK A01 T01541149  RH  011%=      5-min Rain = 0
KFL1 162113Z 18004KT 15/M14 A301 RMK A01 T01531141  RH  012%=      5-min Rain = 0
KFL1 162114Z 21005KT 15/M14 A301 RMK A01 T01521144  RH  012%=      5-min Rain = 0
KFL1 162115Z 20005KT 15/M14 A301 RMK A01 T01531142  RH  012%=      5-min Rain = 0
KFL1 162116Z 19005KT 15/M14 A301 RMK A01 T01541139  RH  012%=      5-min Rain = 0
KFL1 162117Z 20004KT 15/M14 A301 RMK A01 T01531142  RH  012%=      5-min Rain = 0
KFL1 162118Z 20007KT 15/M14 A301 RMK A01 T01531138  RH  012%=      5-min Rain = 0
KFL1 162119Z 21008KT 15/M15 A301 RMK A01 T01531146  RH  011%=      5-min Rain = 0
KFL1 162120Z 21008KT 15/M15 A301 RMK A01 T01531146  RH  011%=      5-min Rain = 0
KFL1 162121Z 20006KT 15/M15 A301 RMK A01 T01531146  RH  011%=      5-min Rain = 0
KFL1 162122Z 24008KT 15/M15 A301 RMK A01 T01511145  RH  012%=      5-min Rain = 0
KFL1 162123Z 25006KT 15/M15 A301 RMK A01 T01501150  RH  011%=      5-min Rain = 0
KFL1 162124Z 25004KT 15/M16 A301 RMK A01 T01491158  RH  011%=      5-min Rain = 0
KFL1 162125Z 25004KT 15/M15 A301 RMK A01 T01511146  RH  012%=      5-min Rain = 0
KFL1 162126Z 23006KT 15/M14 A301 RMK A01 T01491140  RH  012%=      5-min Rain = 0
KFL1 162127Z 23005KT 15/M14 A301 RMK A01 T01481140  RH  012%=      5-min Rain = 0
KFL1 162128Z 22006KT 15/M13 A301 RMK A01 T01501132  RH  013%=      5-min Rain = 0
KFL1 162129Z 22006KT 15/M14 A301 RMK A01 T01501140  RH  012%=      5-min Rain = 0
KFL1 162130Z 23006KT 15/M13 A301 RMK A01 T01491134  RH  013%=      5-min Rain = 0
KFL1 162131Z 23006KT 15/M14 A301 RMK A01 T01491135  RH  013%=      5-min Rain = 0
KFL1 162132Z 24006KT 15/M13 A301 RMK A01 T01511128  RH  013%=      5-min Rain = 0
KFL1 162133Z 23007KT 15/M13 A301 RMK A01 T01491126  RH  014%=      5-min Rain = 0
KFL1 162134Z 22005KT 15/M13 A301 RMK A01 T01491127  RH  014%=      5-min Rain = 0
KFL1 162135Z 22003KT 15/M13 A301 RMK A01 T01501129  RH  013%=      5-min Rain = 0
KFL1 162136Z 23006KT 15/M14 A301 RMK A01 T01521137  RH  012%=      5-min Rain = 0
KFL1 162137Z 21006KT 15/M14 A301 RMK A01 T01501141  RH  012%=      5-min Rain = 0
KFL1 162138Z 21003KT 15/M14 A301 RMK A01 T01501139  RH  012%=      5-min Rain = 0
KFL1 162139Z 22005KT 15/M14 A301 RMK A01 T01501135  RH  013%=      5-min Rain = 0
KFL1 162140Z 20004KT 15/M13 A301 RMK A01 T01521127  RH  013%=      5-min Rain = 0
KFL1 162141Z 20006KT 15/M13 A301 RMK A01 T01511133  RH  013%=      5-min Rain = 0
KFL1 162142Z 19002KT 15/M14 A301 RMK A01 T01491139  RH  012%=      5-min Rain = 0
KFL1 162143Z 17003KT 15/M13 A301 RMK A01 T01501134  RH  013%=      5-min Rain = 0
KFL1 162144Z 18003KT 15/M14 A3009 RMK A01 T01491137  RH  013%=      5-min Rain = 0
KFL1 162145Z 25003KT 15/M14 A3009 RMK A01 T01491143  RH  012%=      5-min Rain = 0
KFL1 162146Z 24007KT 15/M14 A3008 RMK A01 T01491141  RH  012%=      5-min Rain = 0
KFL1 162147Z 21008KT 15/M13 A3008 RMK A01 T01501131  RH  013%=      5-min Rain = 0
KFL1 162148Z 21010KT 15/M14 A3008 RMK A01 T01481137  RH  013%=      5-min Rain = 0
KFL1 162149Z 21007KT 15/M15 A3008 RMK A01 T01471150  RH  011%=      5-min Rain = 0
KFL1 162150Z 22008KT 15/M15 A3008 RMK A01 T01481147  RH  012%=      5-min Rain = 0
KFL1 162151Z 21007KT 15/M15 A3008 RMK A01 T01481145  RH  012%=      5-min Rain = 0
KFL1 162152Z 22004KT 15/M14 A3008 RMK A01 T01501137  RH  013%=      5-min Rain = 0
KFL1 162153Z 21006KT 15/M14 A3008 RMK A01 T01481136  RH  013%=      5-min Rain = 0
KFL1 162154Z 20007KT 15/M13 A3008 RMK A01 T01481129  RH  014%=      5-min Rain = 0
KFL1 162155Z 19006KT 15/M13 A3008 RMK A01 T01481131  RH  013%=      5-min Rain = 0
KFL1 162156Z 20009KT 15/M13 A3008 RMK A01 T01501127  RH  014%=      5-min Rain = 0
KFL1 162157Z 20009KT 15/M13 A3008 RMK A01 T01501133  RH  013%=      5-min Rain = 0
KFL1 162158Z 20005KT 15/M13 A3008 RMK A01 T01481130  RH  013%=      5-min Rain = 0
KFL1 162159Z 20010KT 15/M13 A3008 RMK A01 T01481128  RH  014%=      5-min Rain = 0
KFL1 162200Z 20009KT 15/M13 A3008 RMK A01 T01491128  RH  013%=      5-min Rain = 0
KFL1 162201Z 20008KT 15/M13 A3008 RMK A01 T01471132  RH  013%=      5-min Rain = 0
KFL1 162202Z 22009KT 15/M13 A3008 RMK A01 T01481134  RH  013%=      5-min Rain = 0
KFL1 162203Z 22008KT 15/M14 A3008 RMK A01 T01481136  RH  013%=      5-min Rain = 0
KFL1 162204Z 21008KT 15/M13 A3008 RMK A01 T01481130  RH  013%=      5-min Rain = 0
KFL1 162205Z 21006KT 15/M13 A3008 RMK A01 T01481133  RH  013%=      5-min Rain = 0
KFL1 162206Z 21008KT 15/M13 A3008 RMK A01 T01481130  RH  013%=      5-min Rain = 0
KFL1 162207Z 20007KT 15/M13 A3008 RMK A01 T01511129  RH  013%=      5-min Rain = 0
KFL1 162208Z 17004KT 15/M13 A3008 RMK A01 T01481127  RH  014%=      5-min Rain = 0
KFL1 162209Z 19007KT 15/M13 A3008 RMK A01 T01491129  RH  013%=      5-min Rain = 0
KFL1 162210Z 20006KT 15/M13 A3008 RMK A01 T01471133  RH  013%=      5-min Rain = 0
KFL1 162211Z 20005KT 15/M13 A3008 RMK A01 T01481130  RH  013%=      5-min Rain = 0
KFL1 162212Z 21008KT 15/M13 A3008 RMK A01 T01501126  RH  014%=      5-min Rain = 0
KFL1 162213Z 21008KT 15/M13 A3008 RMK A01 T01481131  RH  013%=      5-min Rain = 0
KFL1 162214Z 21009KT 15/M13 A3008 RMK A01 T01491125  RH  014%=      5-min Rain = 0
KFL1 162215Z 21009KT 15/M12 A3008 RMK A01 T01501124  RH  014%=      5-min Rain = 0
KFL1 162216Z 22010KT 15/M13 A3008 RMK A01 T01491131  RH  013%=      5-min Rain = 0
KFL1 162217Z 21008KT 15/M13 A3008 RMK A01 T01491129  RH  013%=      5-min Rain = 0
KFL1 162218Z 20009KT 15/M12 A3008 RMK A01 T01491123  RH  014%=      5-min Rain = 0
KFL1 162219Z 19006KT 15/M13 A3008 RMK A01 T01511125  RH  014%=      5-min Rain = 0
KFL1 162220Z 20007KT 15/M12 A3008 RMK A01 T01491124  RH  014%=      5-min Rain = 0
KFL1 162221Z 20009KT 15/M13 A3008 RMK A01 T01511130  RH  013%=      5-min Rain = 0
KFL1 162222Z 21008KT 15/M13 A3008 RMK A01 T01511131  RH  013%=      5-min Rain = 0
KFL1 162223Z 20008KT 15/M13 A3008 RMK A01 T01491130  RH  013%=      5-min Rain = 0
KFL1 162224Z 21010KT 15/M14 A3008 RMK A01 T01491136  RH  013%=      5-min Rain = 0
KFL1 162225Z 20010KT 15/M14 A3008 RMK A01 T01491135  RH  013%=      5-min Rain = 0
KFL1 162226Z 20010KT 15/M14 A3008 RMK A01 T01491136  RH  013%=      5-min Rain = 0
KFL1 162227Z 22010KT 15/M14 A3007 RMK A01 T01481139  RH  012%=      5-min Rain = 0
KFL1 162228Z 22009KT 15/M14 A3007 RMK A01 T01481137  RH  013%=      5-min Rain = 0
KFL1 162229Z 22007KT 15/M13 A3007 RMK A01 T01501132  RH  013%=      5-min Rain = 0
KFL1 162230Z 21006KT 15/M13 A3007 RMK A01 T01471132  RH  013%=      5-min Rain = 0
KFL1 162231Z 21004KT 15/M13 A3007 RMK A01 T01471125  RH  014%=      5-min Rain = 0
KFL1 162232Z 21007KT 15/M13 A3007 RMK A01 T01471125  RH  014%=      5-min Rain = 0
KFL1 162233Z 21007KT 15/M13 A3007 RMK A01 T01481133  RH  013%=      5-min Rain = 0
KFL1 162234Z 22008KT 15/M13 A3007 RMK A01 T01481131  RH  013%=      5-min Rain = 0
KFL1 162235Z 22010KT 15/M13 A3007 RMK A01 T01481134  RH  013%=      5-min Rain = 0
KFL1 162236Z 22008KT 15/M14 A3007 RMK A01 T01491136  RH  013%=      5-min Rain = 0
KFL1 162237Z 24011KT 15/M14 A3007 RMK A01 T01471136  RH  013%=      5-min Rain = 0
KFL1 162238Z 24011KT 15/M14 A3007 RMK A01 T01471141  RH  012%=      5-min Rain = 0
KFL1 162239Z 24007KT 15/M14 A3007 RMK A01 T01481139  RH  012%=      5-min Rain = 0
KFL1 162240Z 25006KT 15/M13 A3007 RMK A01 T01481133  RH  013%=      5-min Rain = 0
KFL1 162241Z 23006KT 15/M13 A3007 RMK A01 T01471132  RH  013%=      5-min Rain = 0
KFL1 162242Z 23007KT 15/M13 A3007 RMK A01 T01481130  RH  013%=      5-min Rain = 0
KFL1 162243Z 23008KT 15/M13 A3007 RMK A01 T01491130  RH  013%=      5-min Rain = 0
KFL1 162244Z 24008KT 15/M14 A3007 RMK A01 T01471135  RH  013%=      5-min Rain = 0
KFL1 162245Z 23007KT 15/M13 A3007 RMK A01 T01471127  RH  014%=      5-min Rain = 0
KFL1 162246Z 20007KT 15/M12 A3007 RMK A01 T01471123  RH  014%=      5-min Rain = 0
KFL1 162247Z 22008KT 15/M13 A3007 RMK A01 T01501130  RH  013%=      5-min Rain = 0
KFL1 162248Z 23007KT 15/M13 A3007 RMK A01 T01471129  RH  014%=      5-min Rain = 0
KFL1 162249Z 23007KT 15/M12 A3007 RMK A01 T01471123  RH  014%=      5-min Rain = 0
KFL1 162250Z 23010KT 15/M13 A3007 RMK A01 T01471125  RH  014%=      5-min Rain = 0
KFL1 162251Z 23009KT 15/M14 A3007 RMK A01 T01461135  RH  013%=      5-min Rain = 0
KFL1 162252Z 23010G15KT 15/M13 A3007 RMK A01 T01461134  RH  013%=      5-min Rain = 0
KFL1 162253Z 23012KT 15/M14 A3007 RMK A01 T01461138  RH  013%=      5-min Rain = 0
KFL1 162254Z 23011KT 15/M14 A3007 RMK A01 T01451138  RH  013%=      5-min Rain = 0
KFL1 162255Z 23012KT 15/M14 A3007 RMK A01 T01451137  RH  013%=      5-min Rain = 0
KFL1 162256Z 23009KT 15/M13 A3007 RMK A01 T01471133  RH  013%=      5-min Rain = 0
KFL1 162257Z 23007KT 14/M13 A3007 RMK A01 T01441128  RH  014%=      5-min Rain = 0
KFL1 162258Z 23008KT 14/M13 A3007 RMK A01 T01441127  RH  014%=      5-min Rain = 0
KFL1 162259Z 23009KT 15/M12 A3007 RMK A01 T01451123  RH  014%=      5-min Rain = 0
KFL1 162300Z 23009KT 14/M12 A3007 RMK A01 T01431124  RH  015%=      5-min Rain = 0
KFL1 162301Z 22007KT 14/M13 A3007 RMK A01 T01441130  RH  014%=      5-min Rain = 0
KFL1 162302Z 22006KT 14/M13 A3007 RMK A01 T01431131  RH  014%=      5-min Rain = 0
KFL1 162303Z 22008KT 14/M13 A3007 RMK A01 T01431133  RH  014%=      5-min Rain = 0
KFL1 162304Z 22007KT 14/M13 A3007 RMK A01 T01431131  RH  014%=      5-min Rain = 0
KFL1 162305Z 22007KT 14/M13 A3007 RMK A01 T01441132  RH  014%=      5-min Rain = 0
KFL1 162306Z 22005KT 14/M13 A3007 RMK A01 T01421134  RH  013%=      5-min Rain = 0
KFL1 162307Z 22006KT 14/M13 A3007 RMK A01 T01421129  RH  014%=      5-min Rain = 0
KFL1 162308Z 23007KT 15/M13 A3007 RMK A01 T01451126  RH  014%=      5-min Rain = 0
KFL1 162309Z 22006KT 14/M13 A3007 RMK A01 T01431128  RH  014%=      5-min Rain = 0
KFL1 162310Z 22007KT 14/M13 A3007 RMK A01 T01421127  RH  014%=      5-min Rain = 0
KFL1 162311Z 21006KT 14/M13 A3007 RMK A01 T01431126  RH  014%=      5-min Rain = 0
KFL1 162312Z 21005KT 14/M12 A3007 RMK A01 T01441123  RH  015%=      5-min Rain = 0
KFL1 162313Z 21006KT 14/M12 A3007 RMK A01 T01421123  RH  015%=      5-min Rain = 0
KFL1 162314Z 21008KT 14/M13 A3007 RMK A01 T01431127  RH  014%=      5-min Rain = 0
KFL1 162315Z 21008KT 14/M13 A3007 RMK A01 T01431130  RH  014%=      5-min Rain = 0
KFL1 162316Z 22007KT 14/M14 A3007 RMK A01 T01421136  RH  013%=      5-min Rain = 0
KFL1 162317Z 21006KT 14/M13 A3007 RMK A01 T01431133  RH  014%=      5-min Rain = 0
KFL1 162318Z 21006KT 14/M14 A3006 RMK A01 T01421136  RH  013%=      5-min Rain = 0
KFL1 162319Z 20004KT 14/M13 A3006 RMK A01 T01421129  RH  014%=      5-min Rain = 0
KFL1 162320Z 21005KT 14/M13 A3007 RMK A01 T01441126  RH  014%=      5-min Rain = 0
KFL1 162321Z 21006KT 14/M13 A3007 RMK A01 T01431130  RH  014%=      5-min Rain = 0
KFL1 162322Z 20006KT 14/M13 A3007 RMK A01 T01431130  RH  014%=      5-min Rain = 0
KFL1 162323Z 21006KT 14/M13 A3007 RMK A01 T01431131  RH  014%=      5-min Rain = 0
KFL1 162324Z 22005KT 14/M13 A3007 RMK A01 T01441127  RH  014%=      5-min Rain = 0
KFL1 162325Z 22006KT 14/M13 A3007 RMK A01 T01431127  RH  014%=      5-min Rain = 0
KFL1 162326Z 22005KT 14/M13 A3007 RMK A01 T01441126  RH  014%=      5-min Rain = 0
KFL1 162327Z 23005KT 14/M13 A3007 RMK A01 T01421131  RH  014%=      5-min Rain = 0
KFL1 162328Z 25006KT 14/M12 A3007 RMK A01 T01411123  RH  015%=      5-min Rain = 0
KFL1 162329Z 26007KT 14/M12 A3007 RMK A01 T01411123  RH  015%=      5-min Rain = 0
KFL1 162330Z 24006KT 14/M13 A3007 RMK A01 T01401132  RH  014%=      5-min Rain = 0
KFL1 162331Z 25007KT 14/M14 A3007 RMK A01 T01401135  RH  014%=      5-min Rain = 0
KFL1 162332Z 26004KT 14/M14 A3007 RMK A01 T01401137  RH  013%=      5-min Rain = 0
KFL1 162333Z 27006KT 14/M13 A3006 RMK A01 T01411132  RH  014%=      5-min Rain = 0
KFL1 162334Z 26007KT 14/M13 A3007 RMK A01 T01401126  RH  015%=      5-min Rain = 0
KFL1 162335Z 25011G18KT 14/M13 A3007 RMK A01 T01401125  RH  015%=      5-min Rain = 0
KFL1 162336Z 22007KT 14/M12 A3007 RMK A01 T01401123  RH  015%=      5-min Rain = 0
KFL1 162337Z 24008KT 14/M12 A3008 RMK A01 T01391118  RH  016%=      5-min Rain = 0
KFL1 162338Z 24012KT 14/M12 A3008 RMK A01 T01401120  RH  015%=      5-min Rain = 0
KFL1 162339Z 25016G28KT 14/M12 A3007 RMK A01 T01391115  RH  016%=      5-min Rain = 0
KFL1 162340Z 25014G24KT 14/M11 A3007 RMK A01 T01381111  RH  017%=      5-min Rain = 0
KFL1 162341Z 27020G28KT 14/M11 A3007 RMK A01 T01381105  RH  017%=      5-min Rain = 0
KFL1 162342Z 26019KT 14/M10 A3007 RMK A01 T01391104  RH  017%=      5-min Rain = 0
KFL1 162343Z 26017KT 14/M11 A3007 RMK A01 T01391107  RH  017%=      5-min Rain = 0
KFL1 162344Z 24027G34KT 14/M11 A3007 RMK A01 T01391112  RH  016%=      5-min Rain = 0
KFL1 162345Z 26022G28KT 14/M12 A3007 RMK A01 T01391121  RH  015%=      5-min Rain = 0
KFL1 162346Z 27028KT 14/M11 A3007 RMK A01 T01391114  RH  016%=      5-min Rain = 0
KFL1 162347Z 27021KT 14/M12 A3007 RMK A01 T01391118  RH  016%=      5-min Rain = 0
KFL1 162348Z 25018G24KT 14/M11 A3007 RMK A01 T01411113  RH  016%=      5-min Rain = 0
KFL1 162349Z 26017G24KT 14/M12 A3007 RMK A01 T01391117  RH  016%=      5-min Rain = 0
KFL1 162350Z 25016KT 14/M12 A3007 RMK A01 T01381119  RH  016%=      5-min Rain = 0
KFL1 162351Z 25016G21KT 14/M12 A3007 RMK A01 T01391118  RH  016%=      5-min Rain = 0
KFL1 162352Z 24015G22KT 14/M12 A3007 RMK A01 T01381115  RH  016%=      5-min Rain = 0
KFL1 162353Z 25014KT 14/M11 A3007 RMK A01 T01371113  RH  016%=      5-min Rain = 0
KFL1 162354Z 24013KT 14/M11 A3008 RMK A01 T01381111  RH  017%=      5-min Rain = 0
KFL1 162355Z 23017G32KT 14/M11 A3008 RMK A01 T01391107  RH  017%=      5-min Rain = 0
KFL1 162356Z 23024G30KT 14/M11 A3008 RMK A01 T01391105  RH  017%=      5-min Rain = 0
KFL1 162357Z 23023G32KT 14/M11 A3009 RMK A01 T01391106  RH  017%=      5-min Rain = 0
KFL1 162358Z 23018KT 14/M10 A3008 RMK A01 T01391104  RH  018%=      5-min Rain = 0
KFL1 162359Z 23014KT 14/M11 A3008 RMK A01 T01371109  RH  017%=      5-min Rain = 0
KFL1 170000Z 22015KT 14/M11 A3008 RMK A01 T01371109  RH  017%=      5-min Rain = 0
KFL1 170001Z 24022G32KT 14/M11 A3008 RMK A01 T01361110  RH  017%=      5-min Rain = 0
KFL1 170002Z 23025G30KT 14/M12 A3009 RMK A01 T01361115  RH  016%=      5-min Rain = 0
KFL1 170003Z 26013G18KT 14/M12 A3008 RMK A01 T01371120  RH  016%=      5-min Rain = 0
KFL1 170004Z 23014KT 14/M12 A3008 RMK A01 T01401119  RH  015%=      5-min Rain = 0
KFL1 170005Z 22019G28KT 14/M12 A3009 RMK A01 T01371121  RH  015%=      5-min Rain = 0
KFL1 170006Z 23022G27KT 14/M12 A3009 RMK A01 T01381119  RH  016%=      5-min Rain = 0
KFL1 170007Z 25017KT 14/M12 A3008 RMK A01 T01401118  RH  016%=      5-min Rain = 0
KFL1 170008Z 24016G22KT 14/M12 A3008 RMK A01 T01371119  RH  016%=      5-min Rain = 0
KFL1 170009Z 22014KT 14/M12 A3007 RMK A01 T01371117  RH  016%=      5-min Rain = 0
KFL1 170010Z 21015KT 14/M12 A3008 RMK A01 T01361119  RH  016%=      5-min Rain = 0
KFL1 170011Z 20016KT 14/M12 A3008 RMK A01 T01371118  RH  016%=      5-min Rain = 0
KFL1 170012Z 20018G24KT 14/M12 A3008 RMK A01 T01391117  RH  016%=      5-min Rain = 0
KFL1 170013Z 20015KT 14/M12 A3008 RMK A01 T01381118  RH  016%=      5-min Rain = 0
KFL1 170014Z 22013G18KT 14/M12 A3008 RMK A01 T01401116  RH  016%=      5-min Rain = 0
KFL1 170015Z 21011KT 14/M12 A3007 RMK A01 T01391119  RH  016%=      5-min Rain = 0
KFL1 170016Z 20013KT 14/M12 A3007 RMK A01 T01391118  RH  016%=      5-min Rain = 0
KFL1 170017Z 21012G19KT 14/M12 A3007 RMK A01 T01391119  RH  016%=      5-min Rain = 0
KFL1 170018Z 22012G19KT 14/M12 A3007 RMK A01 T01401119  RH  015%=      5-min Rain = 0
KFL1 170019Z 21013G20KT 14/M12 A3007 RMK A01 T01381124  RH  015%=      5-min Rain = 0
KFL1 170020Z 23011KT 14/M12 A3007 RMK A01 T01381122  RH  015%=      5-min Rain = 0
KFL1 170021Z 23012KT 14/M12 A3007 RMK A01 T01401117  RH  016%=      5-min Rain = 0
KFL1 170022Z 23010KT 14/M12 A3007 RMK A01 T01391117  RH  016%=      5-min Rain = 0
KFL1 170023Z 23009KT 14/M12 A3007 RMK A01 T01371118  RH  016%=      5-min Rain = 0
KFL1 170024Z 23005KT 14/M12 A3007 RMK A01 T01371121  RH  016%=      5-min Rain = 0
KFL1 170025Z 21008KT 14/M12 A3007 RMK A01 T01371121  RH  015%=      5-min Rain = 0
KFL1 170026Z 22007KT 14/M12 A3007 RMK A01 T01391118  RH  016%=      5-min Rain = 0
KFL1 170027Z 21009KT 14/M12 A3007 RMK A01 T01371119  RH  016%=      5-min Rain = 0
KFL1 170028Z 21008KT 14/M12 A3007 RMK A01 T01371118  RH  016%=      5-min Rain = 0
KFL1 170029Z 21009KT 14/M12 A3007 RMK A01 T01371118  RH  016%=      5-min Rain = 0
KFL1 170030Z 20008KT 14/M12 A3007 RMK A01 T01361121  RH  016%=      5-min Rain = 0
KFL1 170031Z 20006KT 14/M12 A3007 RMK A01 T01361118  RH  016%=      5-min Rain = 0
KFL1 170032Z 21009KT 14/M12 A3007 RMK A01 T01361117  RH  016%=      5-min Rain = 0
KFL1 170033Z 21009KT 13/M12 A3007 RMK A01 T01341120  RH  016%=      5-min Rain = 0
KFL1 170034Z 21008KT 14/M12 A3007 RMK A01 T01351119  RH  016%=      5-min Rain = 0
KFL1 170035Z 21007KT 14/M12 A3007 RMK A01 T01351121  RH  016%=      5-min Rain = 0
KFL1 170036Z 21005KT 14/M12 A3007 RMK A01 T01361116  RH  016%=      5-min Rain = 0
KFL1 170037Z 22005KT 13/M12 A3007 RMK A01 T01341117  RH  016%=      5-min Rain = 0
KFL1 170038Z 21006KT 13/M12 A3007 RMK A01 T01341117  RH  016%=      5-min Rain = 0
KFL1 170039Z 22007KT 13/M12 A3007 RMK A01 T01331115  RH  017%=      5-min Rain = 0
KFL1 170040Z 22007KT 13/M12 A3007 RMK A01 T01321115  RH  017%=      5-min Rain = 0
KFL1 170041Z 22008KT 13/M12 A3007 RMK A01 T01311115  RH  017%=      5-min Rain = 0
KFL1 170042Z 22008KT 13/M12 A3007 RMK A01 T01331116  RH  017%=      5-min Rain = 0
KFL1 170043Z 22009KT 13/M12 A3007 RMK A01 T01321119  RH  016%=      5-min Rain = 0
KFL1 170044Z 22010KT 13/M13 A3007 RMK A01 T01321125  RH  016%=      5-min Rain = 0
KFL1 170045Z 22009KT 13/M12 A3007 RMK A01 T01341121  RH  016%=      5-min Rain = 0
KFL1 170046Z 23007KT 13/M12 A3007 RMK A01 T01321122  RH  016%=      5-min Rain = 0
KFL1 170047Z 22007KT 13/M12 A3007 RMK A01 T01321120  RH  016%=      5-min Rain = 0
KFL1 170048Z 23007KT 13/M12 A3008 RMK A01 T01321118  RH  016%=      5-min Rain = 0
KFL1 170049Z 23009KT 13/M12 A3008 RMK A01 T01301122  RH  016%=      5-min Rain = 0
KFL1 170050Z 23007KT 13/M12 A3007 RMK A01 T01291122  RH  016%=      5-min Rain = 0
KFL1 170051Z 23008KT 13/M12 A3007 RMK A01 T01291122  RH  016%=      5-min Rain = 0
KFL1 170052Z 23008KT 13/M12 A3007 RMK A01 T01301123  RH  016%=      5-min Rain = 0
KFL1 170053Z 23008KT 13/M12 A3007 RMK A01 T01291123  RH  016%=      5-min Rain = 0
KFL1 170054Z 23006KT 13/M12 A3007 RMK A01 T01311121  RH  016%=      5-min Rain = 0
KFL1 170055Z 23007KT 13/M12 A3007 RMK A01 T01291121  RH  016%=      5-min Rain = 0
KFL1 170056Z 23006KT 13/M12 A3007 RMK A01 T01271118  RH  017%=      5-min Rain = 0
KFL1 170057Z 23006KT 13/M12 A3007 RMK A01 T01281117  RH  017%=      5-min Rain = 0
KFL1 170058Z 24006G11KT 13/M12 A3007 RMK A01 T01261122  RH  017%=      5-min Rain = 0
KFL1 170059Z 24009KT 13/M13 A3007 RMK A01 T01271132  RH  015%=      5-min Rain = 0
KFL1 170100Z 28006KT 13/M13 A3007 RMK A01 T01301132  RH  015%=      5-min Rain = 0
KFL1 170101Z 28006KT 13/M13 A3007 RMK A01 T01301126  RH  016%=      5-min Rain = 0
KFL1 170102Z 28005KT 13/M12 A3007 RMK A01 T01281124  RH  016%=      5-min Rain = 0
KFL1 170103Z 28004KT 13/M12 A3007 RMK A01 T01261120  RH  017%=      5-min Rain = 0
KFL1 170104Z 25004KT 13/M12 A3007 RMK A01 T01251120  RH  017%=      5-min Rain = 0
KFL1 170105Z 27005G16KT 13/M12 A3007 RMK A01 T01261121  RH  017%=      5-min Rain = 0
KFL1 170106Z 26011G16KT 13/M12 A3007 RMK A01 T01251123  RH  016%=      5-min Rain = 0
KFL1 170107Z 29010KT 13/M13 A3007 RMK A01 T01261125  RH  016%=      5-min Rain = 0
KFL1 170108Z 29017G26KT 13/M12 A3007 RMK A01 T01261122  RH  016%=      5-min Rain = 0
KFL1 170109Z 28013G19KT 13/M12 A3007 RMK A01 T01281121  RH  016%=      5-min Rain = 0
KFL1 170110Z 28016KT 13/M12 A3007 RMK A01 T01321118  RH  016%=      5-min Rain = 0
KFL1 170111Z 27018KT 13/M12 A3007 RMK A01 T01331119  RH  016%=      5-min Rain = 0
KFL1 170112Z 28018G25KT 13/M12 A3007 RMK A01 T01311121  RH  016%=      5-min Rain = 0
KFL1 170113Z 28019KT 13/M12 A3007 RMK A01 T01331115  RH  017%=      5-min Rain = 0
KFL1 170114Z 26022G28KT 13/M11 A3008 RMK A01 T01321110  RH  017%=      5-min Rain = 0
KFL1 170115Z 24012G17KT 13/M11 A3008 RMK A01 T01311113  RH  017%=      5-min Rain = 0
KFL1 170116Z 22007KT 13/M12 A3007 RMK A01 T01301115  RH  017%=      5-min Rain = 0
KFL1 170117Z 24014KT 13/M11 A3007 RMK A01 T01301114  RH  017%=      5-min Rain = 0
KFL1 170118Z 27013G20KT 13/M11 A3007 RMK A01 T01301114  RH  017%=      5-min Rain = 0
KFL1 170119Z 27010KT 13/M12 A3007 RMK A01 T01291116  RH  017%=      5-min Rain = 0
KFL1 170120Z 28007KT 13/M11 A3007 RMK A01 T01281113  RH  017%=      5-min Rain = 0
KFL1 170121Z 27009KT 13/M11 A3007 RMK A01 T01281113  RH  018%=      5-min Rain = 0
KFL1 170122Z 27011KT 13/M11 A3007 RMK A01 T01281109  RH  018%=      5-min Rain = 0
KFL1 170123Z 27014G20KT 13/M11 A3007 RMK A01 T01271105  RH  019%=      5-min Rain = 0
KFL1 170124Z 26015KT 13/M11 A3007 RMK A01 T01261105  RH  019%=      5-min Rain = 0
KFL1 170125Z 27013KT 13/M10 A3007 RMK A01 T01271104  RH  019%=      5-min Rain = 0
KFL1 170126Z 27011KT 13/M10 A3007 RMK A01 T01281103  RH  019%=      5-min Rain = 0
KFL1 170127Z 26016G21KT 13/M10 A3007 RMK A01 T01281101  RH  019%=      5-min Rain = 0
KFL1 170128Z 26017KT 13/M10 A3007 RMK A01 T01281101  RH  019%=      5-min Rain = 0
KFL1 170129Z 26014KT 13/M11 A3007 RMK A01 T01271105  RH  019%=      5-min Rain = 0
KFL1 170130Z 26011KT 13/M10 A3007 RMK A01 T01281104  RH  019%=      5-min Rain = 0
KFL1 170131Z 25012KT 13/M10 A3008 RMK A01 T01281104  RH  019%=      5-min Rain = 0
KFL1 170132Z 24010KT 13/M11 A3008 RMK A01 T01271105  RH  019%=      5-min Rain = 0
KFL1 170133Z 25013G18KT 13/M11 A3008 RMK A01 T01271105  RH  019%=      5-min Rain = 0
KFL1 170134Z 26019KT 13/M11 A3008 RMK A01 T01261106  RH  019%=      5-min Rain = 0
KFL1 170135Z 25017G25KT 13/M11 A3008 RMK A01 T01261106  RH  019%=      5-min Rain = 0
KFL1 170136Z 25021G27KT 13/M11 A3007 RMK A01 T01261112  RH  018%=      5-min Rain = 0
KFL1 170137Z 25021G28KT 13/M12 A3007 RMK A01 T01271115  RH  017%=      5-min Rain = 0
KFL1 170138Z 26021G29KT 13/M11 A3008 RMK A01 T01291113  RH  017%=      5-min Rain = 0
KFL1 170139Z 26021KT 13/M12 A3007 RMK A01 T01281115  RH  017%=      5-min Rain = 0
KFL1 170140Z 26017G24KT 13/M12 A3008 RMK A01 T01291118  RH  017%=      5-min Rain = 0
KFL1 170141Z 26021KT 13/M12 A3008 RMK A01 T01301115  RH  017%=      5-min Rain = 0
KFL1 170142Z 25017KT 13/M11 A3008 RMK A01 T01311112  RH  017%=      5-min Rain = 0
KFL1 170143Z 24014G20KT 13/M11 A3008 RMK A01 T01311111  RH  017%=      5-min Rain = 0
KFL1 170144Z 23012G17KT 13/M11 A3009 RMK A01 T01281112  RH  018%=      5-min Rain = 0
KFL1 170145Z 21018KT 13/M11 A3009 RMK A01 T01271106  RH  019%=      5-min Rain = 0
KFL1 170146Z 20014KT 13/M10 A3009 RMK A01 T01271096  RH  020%=      5-min Rain = 0
KFL1 170147Z 19015G21KT 13/M09 A3008 RMK A01 T01261089  RH  021%=      5-min Rain = 0
KFL1 170148Z 16012G17KT 12/M08 A3008 RMK A01 T01231084  RH  023%=      5-min Rain = 0
KFL1 170149Z 17009G14KT 12/M08 A3008 RMK A01 T01221083  RH  023%=      5-min Rain = 0
KFL1 170150Z 20012G19KT 12/M08 A3008 RMK A01 T01211083  RH  023%=      5-min Rain = 0
KFL1 170151Z 20013G18KT 12/M08 A3008 RMK A01 T01211084  RH  023%=      5-min Rain = 0
KFL1 170152Z 18010KT 12/M08 A3008 RMK A01 T01201084  RH  023%=      5-min Rain = 0
KFL1 170153Z 18011KT 12/M08 A3008 RMK A01 T01221082  RH  023%=      5-min Rain = 0
KFL1 170154Z 18007G12KT 12/M08 A3008 RMK A01 T01211082  RH  023%=      5-min Rain = 0
KFL1 170155Z 23006KT 12/M08 A3008 RMK A01 T01221082  RH  023%=      5-min Rain = 0
KFL1 170156Z 21005KT 12/M08 A3008 RMK A01 T01211084  RH  023%=      5-min Rain = 0
KFL1 170157Z 20006KT 12/M09 A3008 RMK A01 T01201085  RH  023%=      5-min Rain = 0
KFL1 170158Z 19006KT 12/M08 A3008 RMK A01 T01211084  RH  023%=      5-min Rain = 0
KFL1 170159Z 21005KT 12/M09 A3008 RMK A01 T01191086  RH  023%=      5-min Rain = 0
KFL1 170200Z 21006KT 12/M09 A3008 RMK A01 T01201087  RH  023%=      5-min Rain = 0
KFL1 170201Z 19005KT 12/M09 A3008 RMK A01 T01201087  RH  023%=      5-min Rain = 0
KFL1 170202Z 20004KT 12/M09 A3009 RMK A01 T01191086  RH  023%=      5-min Rain = 0
KFL1 170203Z 21006KT 12/M08 A3009 RMK A01 T01201084  RH  023%=      5-min Rain = 0
KFL1 170204Z 24012G18KT 12/M08 A3009 RMK A01 T01211082  RH  023%=      5-min Rain = 0
KFL1 170205Z 24007G17KT 12/M08 A3009 RMK A01 T01191082  RH  024%=      5-min Rain = 0
KFL1 170206Z 21003KT 12/M08 A3008 RMK A01 T01191082  RH  024%=      5-min Rain = 0
KFL1 170207Z 18007G14KT 12/M08 A3008 RMK A01 T01181084  RH  023%=      5-min Rain = 0
KFL1 170208Z 22009KT 12/M08 A3008 RMK A01 T01201082  RH  024%=      5-min Rain = 0
KFL1 170209Z 25010KT 12/M08 A3009 RMK A01 T01191081  RH  024%=      5-min Rain = 0
KFL1 170210Z 26021G26KT 12/M08 A3009 RMK A01 T01181077  RH  025%=      5-min Rain = 0
KFL1 170211Z 26022G27KT 12/M05 A3009 RMK A01 T01161054  RH  030%=      5-min Rain = 0
KFL1 170212Z 25017KT 11/M05 A3009 RMK A01 T01131045  RH  033%=      5-min Rain = 0
KFL1 170213Z 27008KT 11/M04 A3008 RMK A01 T01121038  RH  035%=      5-min Rain = 0
KFL1 170214Z 29008KT 11/M04 A3008 RMK A01 T01101042  RH  034%=      5-min Rain = 0
KFL1 170215Z 29008KT 11/M04 A3008 RMK A01 T01091042  RH  034%=      5-min Rain = 0
KFL1 170216Z 28006KT 11/M05 A3008 RMK A01 T01081048  RH  033%=      5-min Rain = 0
KFL1 170217Z 25004KT 11/M05 A3008 RMK A01 T01081049  RH  033%=      5-min Rain = 0
KFL1 170218Z 23006KT 11/M06 A3008 RMK A01 T01091055  RH  031%=      5-min Rain = 0
KFL1 170219Z 24003KT 11/M06 A3008 RMK A01 T01131055  RH  030%=      5-min Rain = 0
KFL1 170220Z 27007KT 11/M06 A3007 RMK A01 T01121056  RH  030%=      5-min Rain = 0
KFL1 170221Z 24006KT 11/M05 A3008 RMK A01 T01131052  RH  031%=      5-min Rain = 0
KFL1 170222Z 23005KT 11/M06 A3008 RMK A01 T01111057  RH  030%=      5-min Rain = 0
KFL1 170223Z 25005KT 11/M06 A3008 RMK A01 T01121060  RH  029%=      5-min Rain = 0
KFL1 170224Z 24006KT 11/M06 A3008 RMK A01 T01121060  RH  029%=      5-min Rain = 0
KFL1 170225Z 24007KT 11/M06 A3008 RMK A01 T01131058  RH  030%=      5-min Rain = 0
KFL1 170226Z 23006KT 11/M06 A3008 RMK A01 T01121057  RH  030%=      5-min Rain = 0
KFL1 170227Z 22006KT 11/M06 A3008 RMK A01 T01111058  RH  030%=      5-min Rain = 0
KFL1 170228Z 21006KT 11/M06 A3008 RMK A01 T01111058  RH  030%=      5-min Rain = 0
KFL1 170229Z 22006KT 11/M06 A3008 RMK A01 T01111058  RH  030%=      5-min Rain = 0
KFL1 170230Z 21006KT 11/M06 A3008 RMK A01 T01111058  RH  030%=      5-min Rain = 0
KFL1 170231Z 21006KT 11/M06 A3008 RMK A01 T01091061  RH  030%=      5-min Rain = 0
KFL1 170232Z 21005KT 11/M06 A3008 RMK A01 T01101062  RH  030%=      5-min Rain = 0
KFL1 170233Z 21006KT 11/M06 A3008 RMK A01 T01101062  RH  029%=      5-min Rain = 0
KFL1 170234Z 21006KT 11/M06 A3008 RMK A01 T01101062  RH  029%=      5-min Rain = 0
KFL1 170235Z 21007KT 11/M06 A3008 RMK A01 T01111060  RH  030%=      5-min Rain = 0
KFL1 170236Z 22007KT 11/M06 A3008 RMK A01 T01091063  RH  029%=      5-min Rain = 0
KFL1 170237Z 22006KT 11/M06 A3008 RMK A01 T01091063  RH  029%=      5-min Rain = 0
KFL1 170238Z 20006KT 11/M06 A3008 RMK A01 T01101062  RH  029%=      5-min Rain = 0
KFL1 170239Z 18003KT 11/M06 A3008 RMK A01 T01101063  RH  029%=      5-min Rain = 0
KFL1 170240Z 18004KT 11/M06 A3007 RMK A01 T01101064  RH  029%=      5-min Rain = 0
KFL1 170241Z 18005KT 11/M07 A3007 RMK A01 T01091065  RH  029%=      5-min Rain = 0
KFL1 170242Z 18006KT 11/M07 A3007 RMK A01 T01101065  RH  029%=      5-min Rain = 0
KFL1 170243Z 18005KT 11/M06 A3007 RMK A01 T01121064  RH  029%=      5-min Rain = 0
KFL1 170244Z 17004KT 11/M06 A3007 RMK A01 T01131063  RH  029%=      5-min Rain = 0
KFL1 170245Z 17004KT 11/M07 A3007 RMK A01 T01111065  RH  028%=      5-min Rain = 0
KFL1 170246Z 17004KT 11/M07 A3007 RMK A01 T01111066  RH  028%=      5-min Rain = 0
KFL1 170247Z 17003KT 11/M07 A3007 RMK A01 T01121065  RH  028%=      5-min Rain = 0
KFL1 170248Z 17004KT 11/M06 A3007 RMK A01 T01121064  RH  029%=      5-min Rain = 0
KFL1 170249Z 18003KT 11/M07 A3007 RMK A01 T01111065  RH  029%=      5-min Rain = 0
KFL1 170250Z 17004KT 11/M07 A3007 RMK A01 T01101066  RH  028%=      5-min Rain = 0
KFL1 170251Z 17004KT 11/M06 A3008 RMK A01 T01121064  RH  029%=      5-min Rain = 0
KFL1 170252Z 17004KT 11/M07 A3008 RMK A01 T01101065  RH  029%=      5-min Rain = 0
KFL1 170253Z 18003KT 11/M06 A3008 RMK A01 T01111063  RH  029%=      5-min Rain = 0
KFL1 170254Z 19004KT 11/M07 A3008 RMK A01 T01091066  RH  029%=      5-min Rain = 0
KFL1 170255Z 19004KT 11/M07 A3008 RMK A01 T01091067  RH  029%=      5-min Rain = 0
KFL1 170256Z 19006KT 11/M07 A3008 RMK A01 T01091067  RH  028%=      5-min Rain = 0
KFL1 170257Z 17004KT 11/M07 A3008 RMK A01 T01091068  RH  028%=      5-min Rain = 0
KFL1 170258Z 17004KT 11/M07 A3007 RMK A01 T01091069  RH  028%=      5-min Rain = 0
KFL1 170259Z 17004KT 11/M07 A3007 RMK A01 T01081067  RH  029%=      5-min Rain = 0
KFL1 170300Z 16004KT 11/M07 A3007 RMK A01 T01091067  RH  028%=      5-min Rain = 0
KFL1 170301Z 17004KT 11/M07 A3007 RMK A01 T01091068  RH  028%=      5-min Rain = 0
KFL1 170302Z 16004KT 11/M07 A3007 RMK A01 T01101068  RH  028%=      5-min Rain = 0
KFL1 170303Z 16003KT 11/M07 A3007 RMK A01 T01091067  RH  029%=      5-min Rain = 0
KFL1 170304Z 16003KT 11/M07 A3007 RMK A01 T01091066  RH  029%=      5-min Rain = 0
KFL1 170305Z 18004KT 11/M07 A3007 RMK A01 T01091067  RH  029%=      5-min Rain = 0
KFL1 170306Z 18005KT 11/M07 A3007 RMK A01 T01071070  RH  028%=      5-min Rain = 0
KFL1 170307Z 17003KT 11/M07 A3007 RMK A01 T01081071  RH  028%=      5-min Rain = 0
KFL1 170308Z 16004KT 11/M07 A3007 RMK A01 T01081070  RH  028%=      5-min Rain = 0
KFL1 170309Z 16005KT 11/M07 A3007 RMK A01 T01081069  RH  028%=      5-min Rain = 0
KFL1 170310Z 16003KT 11/M07 A3007 RMK A01 T01081070  RH  028%=      5-min Rain = 0
KFL1 170311Z 16003KT 11/M07 A3007 RMK A01 T01091069  RH  028%=      5-min Rain = 0
KFL1 170312Z 17004KT 11/M07 A3007 RMK A01 T01081071  RH  028%=      5-min Rain = 0
KFL1 170313Z 16005KT 11/M07 A3007 RMK A01 T01081070  RH  028%=      5-min Rain = 0
KFL1 170314Z 16004KT 11/M07 A3007 RMK A01 T01081071  RH  028%=      5-min Rain = 0
KFL1 170315Z 16003KT 11/M07 A3007 RMK A01 T01091071  RH  028%=      5-min Rain = 0
KFL1 170316Z 15003KT 11/M07 A3007 RMK A01 T01071073  RH  028%=      5-min Rain = 0
KFL1 170317Z 16003KT 11/M07 A3007 RMK A01 T01071072  RH  028%=      5-min Rain = 0
KFL1 170318Z 14003KT 11/M07 A3007 RMK A01 T01081071  RH  028%=      5-min Rain = 0
KFL1 170319Z 15004KT 11/M07 A3007 RMK A01 T01081071  RH  028%=      5-min Rain = 0
KFL1 170320Z 15004KT 11/M07 A3007 RMK A01 T01071073  RH  028%=      5-min Rain = 0
KFL1 170321Z 15004KT 11/M07 A3007 RMK A01 T01071070  RH  028%=      5-min Rain = 0
KFL1 170322Z 15005KT 11/M07 A3007 RMK A01 T01061071  RH  028%=      5-min Rain = 0
KFL1 170323Z 15004KT 11/M07 A3007 RMK A01 T01061070  RH  028%=      5-min Rain = 0
KFL1 170324Z 15003KT 11/M07 A3007 RMK A01 T01071070  RH  028%=      5-min Rain = 0
KFL1 170325Z 15005KT 11/M07 A3007 RMK A01 T01061072  RH  028%=      5-min Rain = 0
KFL1 170326Z 15004KT 11/M07 A3007 RMK A01 T01061071  RH  028%=      5-min Rain = 0
KFL1 170327Z 13003KT 11/M07 A3007 RMK A01 T01061070  RH  028%=      5-min Rain = 0
KFL1 170328Z 12003KT 11/M07 A3007 RMK A01 T01061068  RH  029%=      5-min Rain = 0
KFL1 170329Z 13003KT 11/M07 A3007 RMK A01 T01051068  RH  029%=      5-min Rain = 0
KFL1 170330Z 12003KT 10/M07 A3007 RMK A01 T01041066  RH  030%=      5-min Rain = 0
KFL1 170331Z 12004KT 10/M07 A3007 RMK A01 T01021071  RH  029%=      5-min Rain = 0
KFL1 170332Z 12004KT 10/M07 A3007 RMK A01 T01031070  RH  029%=      5-min Rain = 0
KFL1 170333Z 12004KT 10/M07 A3007 RMK A01 T01041071  RH  029%=      5-min Rain = 0
KFL1 170334Z 11005KT 10/M07 A3007 RMK A01 T01041068  RH  029%=      5-min Rain = 0
KFL1 170335Z 12005KT 10/M07 A3007 RMK A01 T01041071  RH  029%=      5-min Rain = 0
KFL1 170336Z 12005KT 10/M07 A3007 RMK A01 T01031071  RH  029%=      5-min Rain = 0
KFL1 170337Z 12005KT 10/M07 A3007 RMK A01 T01041070  RH  029%=      5-min Rain = 0
KFL1 170338Z 12005KT 10/M07 A3007 RMK A01 T01041072  RH  028%=      5-min Rain = 0
KFL1 170339Z 11006KT 10/M07 A3007 RMK A01 T01041072  RH  028%=      5-min Rain = 0
KFL1 170340Z 12006KT 10/M07 A3007 RMK A01 T01041071  RH  028%=      5-min Rain = 0
KFL1 170341Z 12005KT 10/M07 A3007 RMK A01 T01041071  RH  028%=      5-min Rain = 0
KFL1 170342Z 11006KT 10/M07 A3007 RMK A01 T01041071  RH  029%=      5-min Rain = 0
KFL1 170343Z 11006KT 10/M07 A3007 RMK A01 T01031073  RH  028%=      5-min Rain = 0
KFL1 170344Z 11007KT 11/M07 A3007 RMK A01 T01051073  RH  028%=      5-min Rain = 0
KFL1 170345Z 11007KT 10/M07 A3006 RMK A01 T01041073  RH  028%=      5-min Rain = 0
KFL1 170346Z 11007KT 10/M07 A3007 RMK A01 T01041074  RH  028%=      5-min Rain = 0
KFL1 170347Z 11007KT 11/M07 A3007 RMK A01 T01051074  RH  028%=      5-min Rain = 0
KFL1 170348Z 11008KT 11/M08 A3007 RMK A01 T01051075  RH  027%=      5-min Rain = 0
KFL1 170349Z 11008KT 11/M07 A3006 RMK A01 T01061072  RH  028%=      5-min Rain = 0
KFL1 170350Z 11008KT 11/M07 A3006 RMK A01 T01051071  RH  028%=      5-min Rain = 0
KFL1 170351Z 11009KT 10/M07 A3006 RMK A01 T01041071  RH  028%=      5-min Rain = 0
KFL1 170352Z 10006KT 10/M07 A3006 RMK A01 T01041073  RH  028%=      5-min Rain = 0
KFL1 170353Z 10006KT 11/M07 A3006 RMK A01 T01061069  RH  029%=      5-min Rain = 0
KFL1 170354Z 11009KT 10/M07 A3006 RMK A01 T01041066  RH  030%=      5-min Rain = 0
KFL1 170355Z 10009KT 10/M06 A3006 RMK A01 T01021061  RH  031%=      5-min Rain = 0
KFL1 170356Z 10007KT 10/M06 A3006 RMK A01 T01011056  RH  033%=      5-min Rain = 0
KFL1 170357Z 10010KT 10/M05 A3006 RMK A01 T01001053  RH  034%=      5-min Rain = 0
KFL1 170358Z 10010KT 10/M05 A3006 RMK A01 T00991050  RH  035%=      5-min Rain = 0
KFL1 170359Z 10009KT 10/M05 A3006 RMK A01 T00981049  RH  035%=      5-min Rain = 0
KFL1 170400Z 10008KT 10/M05 A3006 RMK A01 T00991048  RH  035%=      5-min Rain = 0
KFL1 170401Z 10008KT 10/M05 A3006 RMK A01 T00971047  RH  036%=      5-min Rain = 0
KFL1 170402Z 11005KT 10/M05 A3006 RMK A01 T00961046  RH  036%=      5-min Rain = 0
KFL1 170403Z 11006KT 10/M04 A3006 RMK A01 T00981044  RH  036%=      5-min Rain = 0
KFL1 170404Z 11005KT 10/M05 A3006 RMK A01 T00951046  RH  037%=      5-min Rain = 0
KFL1 170405Z 11006KT 10/M05 A3006 RMK A01 T00951045  RH  037%=      5-min Rain = 0
KFL1 170406Z 09008KT 10/M04 A3006 RMK A01 T00951044  RH  037%=      5-min Rain = 0
KFL1 170407Z 09007KT 09/M04 A3006 RMK A01 T00941041  RH  038%=      5-min Rain = 0
KFL1 170408Z 09007KT 09/M04 A3006 RMK A01 T00931039  RH  039%=      5-min Rain = 0
KFL1 170409Z 09009G14KT 09/M04 A3005 RMK A01 T00911037  RH  040%=      5-min Rain = 0
KFL1 170410Z 08015KT 09/M03 A3005 RMK A01 T00901033  RH  042%=      5-min Rain = 0
KFL1 170411Z 09014KT 09/M03 A3005 RMK A01 T00871032  RH  043%=      5-min Rain = 0
KFL1 170412Z 09013KT 09/M03 A3005 RMK A01 T00871030  RH  044%=      5-min Rain = 0
KFL1 170413Z 08012KT 09/M03 A3005 RMK A01 T00861030  RH  044%=      5-min Rain = 0
KFL1 170414Z 08011KT 09/M03 A3005 RMK A01 T00851030  RH  044%=      5-min Rain = 0
KFL1 170415Z 10009KT 09/M03 A3005 RMK A01 T00851029  RH  045%=      5-min Rain = 0
KFL1 170416Z 10010G15KT 08/M03 A3005 RMK A01 T00841029  RH  045%=      5-min Rain = 0
KFL1 170417Z 09015KT 08/M03 A3005 RMK A01 T00831028  RH  045%=      5-min Rain = 0
KFL1 170418Z 09014KT 08/M03 A3005 RMK A01 T00831027  RH  046%=      5-min Rain = 0
KFL1 170419Z 09014KT 08/M03 A3005 RMK A01 T00821027  RH  046%=      5-min Rain = 0
KFL1 170420Z 09012KT 08/M03 A3005 RMK A01 T00821026  RH  047%=      5-min Rain = 0
KFL1 170421Z 07009KT 08/M03 A3005 RMK A01 T00811026  RH  047%=      5-min Rain = 0
KFL1 170422Z 06011G18KT 08/M03 A3005 RMK A01 T00811025  RH  047%=      5-min Rain = 0
KFL1 170423Z 08010G15KT 08/M03 A3005 RMK A01 T00801026  RH  047%=      5-min Rain = 0
KFL1 170424Z 11012KT 08/M03 A3005 RMK A01 T00811025  RH  047%=      5-min Rain = 0
KFL1 170425Z 12008KT 08/M03 A3006 RMK A01 T00801026  RH  047%=      5-min Rain = 0
KFL1 170426Z 10007KT 08/M02 A3005 RMK A01 T00801024  RH  048%=      5-min Rain = 0
KFL1 170427Z 09005KT 08/M02 A3005 RMK A01 T00801024  RH  048%=      5-min Rain = 0
KFL1 170428Z 08011KT 08/M02 A3005 RMK A01 T00791023  RH  048%=      5-min Rain = 0
KFL1 170429Z 07011G16KT 08/M02 A3005 RMK A01 T00791023  RH  048%=      5-min Rain = 0
KFL1 170430Z 08015KT 08/M02 A3005 RMK A01 T00791024  RH  048%=      5-min Rain = 0
KFL1 170431Z 08013KT 08/M02 A3005 RMK A01 T00791024  RH  048%=      5-min Rain = 0
KFL1 170432Z 08013KT 08/M02 A3005 RMK A01 T00791023  RH  049%=      5-min Rain = 0
KFL1 170433Z 08012KT 08/M02 A3004 RMK A01 T00801021  RH  049%=      5-min Rain = 0
KFL1 170434Z 08009KT 08/M02 A3005 RMK A01 T00791022  RH  049%=      5-min Rain = 0
KFL1 170435Z 08009KT 08/M02 A3005 RMK A01 T00781022  RH  049%=      5-min Rain = 0
KFL1 170436Z 09011KT 08/M02 A3005 RMK A01 T00781022  RH  049%=      5-min Rain = 0
KFL1 170437Z 09010KT 08/M02 A3005 RMK A01 T00771023  RH  049%=      5-min Rain = 0
KFL1 170438Z 10010KT 08/M02 A3005 RMK A01 T00771022  RH  050%=      5-min Rain = 0
KFL1 170439Z 09010KT 08/M02 A3005 RMK A01 T00771022  RH  050%=      5-min Rain = 0
KFL1 170440Z 09014KT 08/M02 A3005 RMK A01 T00771021  RH  050%=      5-min Rain = 0
KFL1 170441Z 09013KT 08/M02 A3005 RMK A01 T00771020  RH  050%=      5-min Rain = 0
KFL1 170442Z 09012KT 08/M02 A3005 RMK A01 T00751020  RH  051%=      5-min Rain = 0
KFL1 170443Z 09012KT 08/M02 A3004 RMK A01 T00761019  RH  051%=      5-min Rain = 0
KFL1 170444Z 09013KT 07/M02 A3004 RMK A01 T00741020  RH  051%=      5-min Rain = 0
KFL1 170445Z 09011KT 07/M02 A3005 RMK A01 T00741020  RH  051%=      5-min Rain = 0
KFL1 170446Z 09012KT 07/M02 A3005 RMK A01 T00741020  RH  051%=      5-min Rain = 0
KFL1 170447Z 09010KT 08/M02 A3005 RMK A01 T00751019  RH  051%=      5-min Rain = 0
KFL1 170448Z 09012KT 08/M02 A3004 RMK A01 T00751018  RH  052%=      5-min Rain = 0
KFL1 170449Z 08009KT 07/M02 A3005 RMK A01 T00741020  RH  051%=      5-min Rain = 0
KFL1 170450Z 08010KT 08/M02 A3005 RMK A01 T00751019  RH  051%=      5-min Rain = 0
KFL1 170451Z 09009KT 07/M02 A3005 RMK A01 T00741020  RH  051%=      5-min Rain = 0
KFL1 170452Z 08008KT 07/M02 A3005 RMK A01 T00741019  RH  051%=      5-min Rain = 0
KFL1 170453Z 09011KT 08/M02 A3005 RMK A01 T00751019  RH  051%=      5-min Rain = 0
KFL1 170454Z 10009KT 07/M02 A3005 RMK A01 T00731021  RH  051%=      5-min Rain = 0
KFL1 170455Z 09009KT 07/M02 A3005 RMK A01 T00741020  RH  051%=      5-min Rain = 0
KFL1 170456Z 09010KT 07/M02 A3005 RMK A01 T00741019  RH  052%=      5-min Rain = 0
KFL1 170457Z 09010KT 07/M02 A3004 RMK A01 T00741018  RH  052%=      5-min Rain = 0
KFL1 170458Z 09008KT 07/M02 A3004 RMK A01 T00741018  RH  052%=      5-min Rain = 0
KFL1 170459Z 10007KT 07/M02 A3004 RMK A01 T00741017  RH  052%=      5-min Rain = 0
KFL1 170500Z 11007KT 07/M02 A3004 RMK A01 T00731017  RH  053%=      5-min Rain = 0

Page generated in 0.0653 seconds.